<?xml version="1.0" encoding="UTF-8" standalone="no" ?>
<gpx xmlns="http://www.topografix.com/GPX/1/1" xmlns:xsi="http://www.w3.org/2001/XMLSchema-instance" xsi:schemaLocation="http://www.topografix.com/GPX/1/1 http://www.topografix.com/GPX/1/1/gpx.xsd" version="1.1" creator="VisuGPX - https://www.visugpx.com">
  <metadata>
    <name>Le Pinet (chartreuse)</name>
    <desc><![CDATA[Le Pinet (ou le truc), en boucle, avec passage par une échelle dans une grotte ;)]]></desc>
  </metadata>
  <trk>
    <name><![CDATA[chartreuse - Pinet]]></name>
    <desc><![CDATA[<p>Heure de départ: 08/22/2015 09:30<br/>Heure d'arrivée: 08/22/2015 15:56<br/>Distance: 13,2 km (06:26)<br/>Temps déplacement: 04:07<br/>Vitesse moyenne: 2,04 km/h<br/>Vitesse moyenne mouv.: 3,19 km/h<br/>Vitesse Max.: 13,42 km/h<br/>Altitude minimale: 1029 m<br/>Altitude maximale: 1865 m<br/>Vitesse de montée: 284,7 m/h<br/>Vitesse de descente: -443,6 m/h<br/>Gain d'altitude: 1083 m<br/>Perte d'altitude: -1084 m<br/>Temps de montée: 03:48<br/>Temps de descente: 02:26<br/></p><hr align="center" width="480" style="height: 2px; width: 517px"/>]]></desc>
    <trkseg>
      <trkpt lat="45.41244" lon="5.88662">
        <ele>1043.34</ele>
        <time>2015-08-22T07:30:08Z</time>
      </trkpt>
      <trkpt lat="45.41232" lon="5.88682">
        <ele>1039.03</ele>
        <time>2015-08-22T07:30:35Z</time>
      </trkpt>
      <trkpt lat="45.41218" lon="5.887">
        <ele>1036.31</ele>
        <time>2015-08-22T07:30:55Z</time>
      </trkpt>
      <trkpt lat="45.41204" lon="5.88717">
        <ele>1035.49</ele>
        <time>2015-08-22T07:31:17Z</time>
      </trkpt>
      <trkpt lat="45.41189" lon="5.88731">
        <ele>1041.76</ele>
        <time>2015-08-22T07:31:45Z</time>
      </trkpt>
      <trkpt lat="45.41178" lon="5.88753">
        <ele>1048.59</ele>
        <time>2015-08-22T07:32:12Z</time>
      </trkpt>
      <trkpt lat="45.4117" lon="5.88777">
        <ele>1056.85</ele>
        <time>2015-08-22T07:32:34Z</time>
      </trkpt>
      <trkpt lat="45.41159" lon="5.88798">
        <ele>1061.9</ele>
        <time>2015-08-22T07:32:58Z</time>
      </trkpt>
      <trkpt lat="45.41147" lon="5.88818">
        <ele>1061.14</ele>
        <time>2015-08-22T07:33:25Z</time>
      </trkpt>
      <trkpt lat="45.41158" lon="5.88838">
        <ele>1074.96</ele>
        <time>2015-08-22T07:34:40Z</time>
      </trkpt>
      <trkpt lat="45.41172" lon="5.88855">
        <ele>1078.86</ele>
        <time>2015-08-22T07:35:33Z</time>
      </trkpt>
      <trkpt lat="45.41191" lon="5.88857">
        <ele>1085.17</ele>
        <time>2015-08-22T07:36:01Z</time>
      </trkpt>
      <trkpt lat="45.41209" lon="5.8886">
        <ele>1089.13</ele>
        <time>2015-08-22T07:36:21Z</time>
      </trkpt>
      <trkpt lat="45.41227" lon="5.88863">
        <ele>1097.75</ele>
        <time>2015-08-22T07:36:53Z</time>
      </trkpt>
      <trkpt lat="45.41245" lon="5.88864">
        <ele>1105.23</ele>
        <time>2015-08-22T07:37:21Z</time>
      </trkpt>
      <trkpt lat="45.41263" lon="5.88868">
        <ele>1104.64</ele>
        <time>2015-08-22T07:37:45Z</time>
      </trkpt>
      <trkpt lat="45.41281" lon="5.88873">
        <ele>1104.33</ele>
        <time>2015-08-22T07:38:06Z</time>
      </trkpt>
      <trkpt lat="45.41299" lon="5.88871">
        <ele>1120.85</ele>
        <time>2015-08-22T07:38:39Z</time>
      </trkpt>
      <trkpt lat="45.41317" lon="5.88868">
        <ele>1126.34</ele>
        <time>2015-08-22T07:39:21Z</time>
      </trkpt>
      <trkpt lat="45.41336" lon="5.8887">
        <ele>1134.26</ele>
        <time>2015-08-22T07:39:46Z</time>
      </trkpt>
      <trkpt lat="45.41355" lon="5.88878">
        <ele>1128.38</ele>
        <time>2015-08-22T07:40:23Z</time>
      </trkpt>
      <trkpt lat="45.41373" lon="5.88875">
        <ele>1132.88</ele>
        <time>2015-08-22T07:40:47Z</time>
      </trkpt>
      <trkpt lat="45.41391" lon="5.88881">
        <ele>1145.04</ele>
        <time>2015-08-22T07:41:25Z</time>
      </trkpt>
      <trkpt lat="45.4141" lon="5.88879">
        <ele>1152.69</ele>
        <time>2015-08-22T07:42:08Z</time>
      </trkpt>
      <trkpt lat="45.41429" lon="5.88877">
        <ele>1159.21</ele>
        <time>2015-08-22T07:42:32Z</time>
      </trkpt>
      <trkpt lat="45.41447" lon="5.88877">
        <ele>1167.35</ele>
        <time>2015-08-22T07:42:54Z</time>
      </trkpt>
      <trkpt lat="45.41466" lon="5.8888">
        <ele>1168.5</ele>
        <time>2015-08-22T07:43:16Z</time>
      </trkpt>
      <trkpt lat="45.41485" lon="5.88879">
        <ele>1180.46</ele>
        <time>2015-08-22T07:43:44Z</time>
      </trkpt>
      <trkpt lat="45.41503" lon="5.88879">
        <ele>1182.94</ele>
        <time>2015-08-22T07:44:24Z</time>
      </trkpt>
      <trkpt lat="45.4152" lon="5.88887">
        <ele>1195.22</ele>
        <time>2015-08-22T07:45:04Z</time>
      </trkpt>
      <trkpt lat="45.41538" lon="5.88885">
        <ele>1196.49</ele>
        <time>2015-08-22T07:45:30Z</time>
      </trkpt>
      <trkpt lat="45.41549" lon="5.88906">
        <ele>1216.21</ele>
        <time>2015-08-22T07:46:28Z</time>
      </trkpt>
      <trkpt lat="45.41548" lon="5.88932">
        <ele>1224.68</ele>
        <time>2015-08-22T07:47:05Z</time>
      </trkpt>
      <trkpt lat="45.41545" lon="5.88957">
        <ele>1218.44</ele>
        <time>2015-08-22T07:47:49Z</time>
      </trkpt>
      <trkpt lat="45.41534" lon="5.88978">
        <ele>1223.62</ele>
        <time>2015-08-22T07:48:23Z</time>
      </trkpt>
      <trkpt lat="45.41528" lon="5.89003">
        <ele>1236.43</ele>
        <time>2015-08-22T07:48:57Z</time>
      </trkpt>
      <trkpt lat="45.4152" lon="5.89026">
        <ele>1243.55</ele>
        <time>2015-08-22T07:49:46Z</time>
      </trkpt>
      <trkpt lat="45.41513" lon="5.8905">
        <ele>1250.55</ele>
        <time>2015-08-22T07:50:25Z</time>
      </trkpt>
      <trkpt lat="45.41503" lon="5.89072">
        <ele>1256.02</ele>
        <time>2015-08-22T07:51:14Z</time>
      </trkpt>
      <trkpt lat="45.41491" lon="5.89092">
        <ele>1265.68</ele>
        <time>2015-08-22T07:51:58Z</time>
      </trkpt>
      <trkpt lat="45.4148" lon="5.89113">
        <ele>1277.34</ele>
        <time>2015-08-22T07:52:42Z</time>
      </trkpt>
      <trkpt lat="45.41466" lon="5.8913">
        <ele>1288.59</ele>
        <time>2015-08-22T07:53:32Z</time>
      </trkpt>
      <trkpt lat="45.41454" lon="5.8915">
        <ele>1292.96</ele>
        <time>2015-08-22T07:54:19Z</time>
      </trkpt>
      <trkpt lat="45.4145" lon="5.89174">
        <ele>1298.6</ele>
        <time>2015-08-22T07:54:57Z</time>
      </trkpt>
      <trkpt lat="45.41453" lon="5.892">
        <ele>1311.38</ele>
        <time>2015-08-22T07:58:34Z</time>
      </trkpt>
      <trkpt lat="45.41466" lon="5.89218">
        <ele>1320.11</ele>
        <time>2015-08-22T07:59:25Z</time>
      </trkpt>
      <trkpt lat="45.41483" lon="5.89227">
        <ele>1319.61</ele>
        <time>2015-08-22T08:00:01Z</time>
      </trkpt>
      <trkpt lat="45.41499" lon="5.89239">
        <ele>1325.15</ele>
        <time>2015-08-22T08:00:42Z</time>
      </trkpt>
      <trkpt lat="45.41517" lon="5.89246">
        <ele>1344.43</ele>
        <time>2015-08-22T08:01:38Z</time>
      </trkpt>
      <trkpt lat="45.41535" lon="5.89238">
        <ele>1347.75</ele>
        <time>2015-08-22T08:02:24Z</time>
      </trkpt>
      <trkpt lat="45.41553" lon="5.89241">
        <ele>1354.18</ele>
        <time>2015-08-22T08:03:13Z</time>
      </trkpt>
      <trkpt lat="45.41568" lon="5.89255">
        <ele>1368.79</ele>
        <time>2015-08-22T08:03:58Z</time>
      </trkpt>
      <trkpt lat="45.41585" lon="5.89265">
        <ele>1373.76</ele>
        <time>2015-08-22T08:04:47Z</time>
      </trkpt>
      <trkpt lat="45.41603" lon="5.89273">
        <ele>1379.56</ele>
        <time>2015-08-22T08:05:29Z</time>
      </trkpt>
      <trkpt lat="45.4162" lon="5.89279">
        <ele>1382.62</ele>
        <time>2015-08-22T08:06:14Z</time>
      </trkpt>
      <trkpt lat="45.41632" lon="5.89298">
        <ele>1395.89</ele>
        <time>2015-08-22T08:07:11Z</time>
      </trkpt>
      <trkpt lat="45.41647" lon="5.89313">
        <ele>1405.13</ele>
        <time>2015-08-22T08:08:01Z</time>
      </trkpt>
      <trkpt lat="45.41659" lon="5.89334">
        <ele>1414.34</ele>
        <time>2015-08-22T08:09:04Z</time>
      </trkpt>
      <trkpt lat="45.41675" lon="5.89346">
        <ele>1424.49</ele>
        <time>2015-08-22T08:09:53Z</time>
      </trkpt>
      <trkpt lat="45.41689" lon="5.89363">
        <ele>1439.22</ele>
        <time>2015-08-22T08:11:03Z</time>
      </trkpt>
      <trkpt lat="45.41704" lon="5.8938">
        <ele>1447.05</ele>
        <time>2015-08-22T08:12:06Z</time>
      </trkpt>
      <trkpt lat="45.41719" lon="5.89394">
        <ele>1461.8</ele>
        <time>2015-08-22T08:13:04Z</time>
      </trkpt>
      <trkpt lat="45.41727" lon="5.89418">
        <ele>1467.38</ele>
        <time>2015-08-22T08:14:05Z</time>
      </trkpt>
      <trkpt lat="45.4173" lon="5.89444">
        <ele>1469.77</ele>
        <time>2015-08-22T08:14:39Z</time>
      </trkpt>
      <trkpt lat="45.41746" lon="5.89458">
        <ele>1481.1</ele>
        <time>2015-08-22T08:15:18Z</time>
      </trkpt>
      <trkpt lat="45.41748" lon="5.89485">
        <ele>1482.75</ele>
        <time>2015-08-22T08:15:44Z</time>
      </trkpt>
      <trkpt lat="45.41747" lon="5.89511">
        <ele>1488.5</ele>
        <time>2015-08-22T08:17:47Z</time>
      </trkpt>
      <trkpt lat="45.41747" lon="5.89537">
        <ele>1489.38</ele>
        <time>2015-08-22T08:19:03Z</time>
      </trkpt>
      <trkpt lat="45.41745" lon="5.89563">
        <ele>1496.75</ele>
        <time>2015-08-22T08:19:34Z</time>
      </trkpt>
      <trkpt lat="45.41747" lon="5.89589">
        <ele>1503.25</ele>
        <time>2015-08-22T08:20:14Z</time>
      </trkpt>
      <trkpt lat="45.41739" lon="5.89612">
        <ele>1505.46</ele>
        <time>2015-08-22T08:20:58Z</time>
      </trkpt>
      <trkpt lat="45.41729" lon="5.89636">
        <ele>1503.18</ele>
        <time>2015-08-22T08:21:12Z</time>
      </trkpt>
      <trkpt lat="45.41715" lon="5.89652">
        <ele>1510.81</ele>
        <time>2015-08-22T08:21:47Z</time>
      </trkpt>
      <trkpt lat="45.41702" lon="5.89671">
        <ele>1514.89</ele>
        <time>2015-08-22T08:22:13Z</time>
      </trkpt>
      <trkpt lat="45.4169" lon="5.89691">
        <ele>1515.31</ele>
        <time>2015-08-22T08:22:36Z</time>
      </trkpt>
      <trkpt lat="45.41677" lon="5.89708">
        <ele>1518.89</ele>
        <time>2015-08-22T08:23:04Z</time>
      </trkpt>
      <trkpt lat="45.41663" lon="5.89725">
        <ele>1522.88</ele>
        <time>2015-08-22T08:23:30Z</time>
      </trkpt>
      <trkpt lat="45.41652" lon="5.89746">
        <ele>1531.84</ele>
        <time>2015-08-22T08:24:10Z</time>
      </trkpt>
      <trkpt lat="45.41656" lon="5.89772">
        <ele>1543.19</ele>
        <time>2015-08-22T08:25:18Z</time>
      </trkpt>
      <trkpt lat="45.41656" lon="5.89798">
        <ele>1549.82</ele>
        <time>2015-08-22T08:26:17Z</time>
      </trkpt>
      <trkpt lat="45.4165" lon="5.89823">
        <ele>1556.25</ele>
        <time>2015-08-22T08:27:09Z</time>
      </trkpt>
      <trkpt lat="45.41668" lon="5.89828">
        <ele>1561.33</ele>
        <time>2015-08-22T08:27:51Z</time>
      </trkpt>
      <trkpt lat="45.41668" lon="5.89853">
        <ele>1571.24</ele>
        <time>2015-08-22T08:29:12Z</time>
      </trkpt>
      <trkpt lat="45.41655" lon="5.89873">
        <ele>1573.8</ele>
        <time>2015-08-22T08:30:20Z</time>
      </trkpt>
      <trkpt lat="45.4164" lon="5.89888">
        <ele>1576.72</ele>
        <time>2015-08-22T08:30:53Z</time>
      </trkpt>
      <trkpt lat="45.41628" lon="5.89911">
        <ele>1578.44</ele>
        <time>2015-08-22T08:31:35Z</time>
      </trkpt>
      <trkpt lat="45.41614" lon="5.89927">
        <ele>1581.37</ele>
        <time>2015-08-22T08:32:11Z</time>
      </trkpt>
      <trkpt lat="45.416" lon="5.89945">
        <ele>1581.74</ele>
        <time>2015-08-22T08:32:29Z</time>
      </trkpt>
      <trkpt lat="45.41587" lon="5.89962">
        <ele>1589.62</ele>
        <time>2015-08-22T08:33:29Z</time>
      </trkpt>
      <trkpt lat="45.4158" lon="5.89986">
        <ele>1587.56</ele>
        <time>2015-08-22T08:33:53Z</time>
      </trkpt>
      <trkpt lat="45.41568" lon="5.90007">
        <ele>1591.18</ele>
        <time>2015-08-22T08:34:23Z</time>
      </trkpt>
      <trkpt lat="45.41586" lon="5.90005">
        <ele>1603.61</ele>
        <time>2015-08-22T08:35:49Z</time>
      </trkpt>
      <trkpt lat="45.41601" lon="5.8999">
        <ele>1612.61</ele>
        <time>2015-08-22T08:36:35Z</time>
      </trkpt>
      <trkpt lat="45.41617" lon="5.89976">
        <ele>1618.95</ele>
        <time>2015-08-22T08:36:53Z</time>
      </trkpt>
      <trkpt lat="45.41631" lon="5.89959">
        <ele>1629.06</ele>
        <time>2015-08-22T08:37:14Z</time>
      </trkpt>
      <trkpt lat="45.41648" lon="5.89951">
        <ele>1622.39</ele>
        <time>2015-08-22T08:37:43Z</time>
      </trkpt>
      <trkpt lat="45.41667" lon="5.89948">
        <ele>1624.38</ele>
        <time>2015-08-22T08:38:43Z</time>
      </trkpt>
      <trkpt lat="45.41685" lon="5.8994">
        <ele>1621.16</ele>
        <time>2015-08-22T08:39:05Z</time>
      </trkpt>
      <trkpt lat="45.41702" lon="5.89931">
        <ele>1619.81</ele>
        <time>2015-08-22T08:39:53Z</time>
      </trkpt>
      <trkpt lat="45.41717" lon="5.89916">
        <ele>1625.22</ele>
        <time>2015-08-22T08:40:09Z</time>
      </trkpt>
      <trkpt lat="45.41733" lon="5.89903">
        <ele>1631.61</ele>
        <time>2015-08-22T08:40:31Z</time>
      </trkpt>
      <trkpt lat="45.41746" lon="5.89883">
        <ele>1635.23</ele>
        <time>2015-08-22T08:41:01Z</time>
      </trkpt>
      <trkpt lat="45.41765" lon="5.89872">
        <ele>1640.88</ele>
        <time>2015-08-22T08:43:22Z</time>
      </trkpt>
      <trkpt lat="45.41781" lon="5.89859">
        <ele>1639.49</ele>
        <time>2015-08-22T08:44:06Z</time>
      </trkpt>
      <trkpt lat="45.418" lon="5.8986">
        <ele>1644.73</ele>
        <time>2015-08-22T08:44:37Z</time>
      </trkpt>
      <trkpt lat="45.41818" lon="5.89858">
        <ele>1645.44</ele>
        <time>2015-08-22T08:44:55Z</time>
      </trkpt>
      <trkpt lat="45.41837" lon="5.89858">
        <ele>1645.92</ele>
        <time>2015-08-22T08:45:25Z</time>
      </trkpt>
      <trkpt lat="45.41855" lon="5.89861">
        <ele>1650.86</ele>
        <time>2015-08-22T08:45:46Z</time>
      </trkpt>
      <trkpt lat="45.41873" lon="5.89866">
        <ele>1650.01</ele>
        <time>2015-08-22T08:46:13Z</time>
      </trkpt>
      <trkpt lat="45.41891" lon="5.89869">
        <ele>1646.39</ele>
        <time>2015-08-22T08:46:35Z</time>
      </trkpt>
      <trkpt lat="45.41908" lon="5.89878">
        <ele>1646.39</ele>
        <time>2015-08-22T08:46:53Z</time>
      </trkpt>
      <trkpt lat="45.41926" lon="5.89886">
        <ele>1644.92</ele>
        <time>2015-08-22T08:47:47Z</time>
      </trkpt>
      <trkpt lat="45.41937" lon="5.89908">
        <ele>1640.27</ele>
        <time>2015-08-22T08:50:51Z</time>
      </trkpt>
      <trkpt lat="45.41947" lon="5.89929">
        <ele>1646.75</ele>
        <time>2015-08-22T08:53:08Z</time>
      </trkpt>
      <trkpt lat="45.41956" lon="5.89952">
        <ele>1670.27</ele>
        <time>2015-08-22T08:55:15Z</time>
      </trkpt>
      <trkpt lat="45.41952" lon="5.89979">
        <ele>1679.38</ele>
        <time>2015-08-22T08:56:49Z</time>
      </trkpt>
      <trkpt lat="45.41952" lon="5.90005">
        <ele>1681.84</ele>
        <time>2015-08-22T08:57:42Z</time>
      </trkpt>
      <trkpt lat="45.41939" lon="5.90022">
        <ele>1693.88</ele>
        <time>2015-08-22T08:58:57Z</time>
      </trkpt>
      <trkpt lat="45.41954" lon="5.90035">
        <ele>1715.03</ele>
        <time>2015-08-22T08:59:46Z</time>
      </trkpt>
      <trkpt lat="45.41958" lon="5.90062">
        <ele>1718.63</ele>
        <time>2015-08-22T09:01:52Z</time>
      </trkpt>
      <trkpt lat="45.41939" lon="5.90064">
        <ele>1740.06</ele>
        <time>2015-08-22T09:02:49Z</time>
      </trkpt>
      <trkpt lat="45.41929" lon="5.90085">
        <ele>1744.67</ele>
        <time>2015-08-22T09:03:39Z</time>
      </trkpt>
      <trkpt lat="45.41942" lon="5.90104">
        <ele>1748.85</ele>
        <time>2015-08-22T09:04:11Z</time>
      </trkpt>
      <trkpt lat="45.41953" lon="5.90126">
        <ele>1759.31</ele>
        <time>2015-08-22T09:05:18Z</time>
      </trkpt>
      <trkpt lat="45.41937" lon="5.9016">
        <ele>1777.39</ele>
        <time>2015-08-22T09:08:41Z</time>
      </trkpt>
      <trkpt lat="45.41928" lon="5.90184">
        <ele>1777.85</ele>
        <time>2015-08-22T09:08:45Z</time>
      </trkpt>
      <trkpt lat="45.41923" lon="5.90212">
        <ele>1777.86</ele>
        <time>2015-08-22T09:08:46Z</time>
      </trkpt>
      <trkpt lat="45.41911" lon="5.90188">
        <ele>1778.38</ele>
        <time>2015-08-22T09:09:08Z</time>
      </trkpt>
      <trkpt lat="45.41955" lon="5.90148">
        <ele>1781.88</ele>
        <time>2015-08-22T09:09:29Z</time>
      </trkpt>
      <trkpt lat="45.41965" lon="5.90184">
        <ele>1769.88</ele>
        <time>2015-08-22T09:13:26Z</time>
      </trkpt>
      <trkpt lat="45.4195" lon="5.90135">
        <ele>1769.38</ele>
        <time>2015-08-22T09:13:37Z</time>
      </trkpt>
      <trkpt lat="45.41968" lon="5.90139">
        <ele>1790.44</ele>
        <time>2015-08-22T09:15:56Z</time>
      </trkpt>
      <trkpt lat="45.41963" lon="5.90164">
        <ele>1793.8</ele>
        <time>2015-08-22T09:17:01Z</time>
      </trkpt>
      <trkpt lat="45.41953" lon="5.90187">
        <ele>1814.35</ele>
        <time>2015-08-22T09:18:39Z</time>
      </trkpt>
      <trkpt lat="45.41971" lon="5.90195">
        <ele>1826.07</ele>
        <time>2015-08-22T09:27:21Z</time>
      </trkpt>
      <trkpt lat="45.41983" lon="5.90176">
        <ele>1830.18</ele>
        <time>2015-08-22T09:27:43Z</time>
      </trkpt>
      <trkpt lat="45.42002" lon="5.90171">
        <ele>1830.43</ele>
        <time>2015-08-22T09:27:57Z</time>
      </trkpt>
      <trkpt lat="45.41986" lon="5.90185">
        <ele>1848.24</ele>
        <time>2015-08-22T09:31:06Z</time>
      </trkpt>
      <trkpt lat="45.41973" lon="5.90203">
        <ele>1846.45</ele>
        <time>2015-08-22T09:31:22Z</time>
      </trkpt>
      <trkpt lat="45.41981" lon="5.90227">
        <ele>1841.63</ele>
        <time>2015-08-22T09:34:56Z</time>
      </trkpt>
      <trkpt lat="45.41999" lon="5.90236">
        <ele>1842.9</ele>
        <time>2015-08-22T09:35:23Z</time>
      </trkpt>
      <trkpt lat="45.42016" lon="5.90243">
        <ele>1845.15</ele>
        <time>2015-08-22T09:35:46Z</time>
      </trkpt>
      <trkpt lat="45.42034" lon="5.90238">
        <ele>1848.8</ele>
        <time>2015-08-22T09:36:05Z</time>
      </trkpt>
      <trkpt lat="45.42052" lon="5.90242">
        <ele>1847.72</ele>
        <time>2015-08-22T09:36:27Z</time>
      </trkpt>
      <trkpt lat="45.42071" lon="5.90239">
        <ele>1848.5</ele>
        <time>2015-08-22T09:36:44Z</time>
      </trkpt>
      <trkpt lat="45.42087" lon="5.9025">
        <ele>1846.94</ele>
        <time>2015-08-22T09:37:06Z</time>
      </trkpt>
      <trkpt lat="45.42105" lon="5.90259">
        <ele>1848.6</ele>
        <time>2015-08-22T09:37:26Z</time>
      </trkpt>
      <trkpt lat="45.42123" lon="5.90259">
        <ele>1848.13</ele>
        <time>2015-08-22T09:37:45Z</time>
      </trkpt>
      <trkpt lat="45.42141" lon="5.90266">
        <ele>1850.75</ele>
        <time>2015-08-22T09:38:06Z</time>
      </trkpt>
      <trkpt lat="45.42159" lon="5.90268">
        <ele>1851.18</ele>
        <time>2015-08-22T09:38:32Z</time>
      </trkpt>
      <trkpt lat="45.42177" lon="5.90264">
        <ele>1853.47</ele>
        <time>2015-08-22T09:38:54Z</time>
      </trkpt>
      <trkpt lat="45.42195" lon="5.9026">
        <ele>1856.88</ele>
        <time>2015-08-22T09:39:19Z</time>
      </trkpt>
      <trkpt lat="45.42213" lon="5.90257">
        <ele>1858.5</ele>
        <time>2015-08-22T09:39:38Z</time>
      </trkpt>
      <trkpt lat="45.4223" lon="5.9025">
        <ele>1860.88</ele>
        <time>2015-08-22T09:39:58Z</time>
      </trkpt>
      <trkpt lat="45.42249" lon="5.90252">
        <ele>1860.88</ele>
        <time>2015-08-22T09:40:19Z</time>
      </trkpt>
      <trkpt lat="45.42266" lon="5.90264">
        <ele>1862.13</ele>
        <time>2015-08-22T09:40:52Z</time>
      </trkpt>
      <trkpt lat="45.4228" lon="5.90281">
        <ele>1857.16</ele>
        <time>2015-08-22T09:41:15Z</time>
      </trkpt>
      <trkpt lat="45.42297" lon="5.90289">
        <ele>1857.82</ele>
        <time>2015-08-22T09:41:35Z</time>
      </trkpt>
      <trkpt lat="45.42315" lon="5.90289">
        <ele>1856.63</ele>
        <time>2015-08-22T09:42:13Z</time>
      </trkpt>
      <trkpt lat="45.42331" lon="5.90303">
        <ele>1854.44</ele>
        <time>2015-08-22T09:42:42Z</time>
      </trkpt>
      <trkpt lat="45.42347" lon="5.90315">
        <ele>1852.87</ele>
        <time>2015-08-22T09:43:24Z</time>
      </trkpt>
      <trkpt lat="45.42363" lon="5.90303">
        <ele>1854.82</ele>
        <time>2015-08-22T09:43:53Z</time>
      </trkpt>
      <trkpt lat="45.4238" lon="5.90313">
        <ele>1852.86</ele>
        <time>2015-08-22T09:47:37Z</time>
      </trkpt>
      <trkpt lat="45.42397" lon="5.90304">
        <ele>1856.83</ele>
        <time>2015-08-22T09:48:00Z</time>
      </trkpt>
      <trkpt lat="45.42416" lon="5.90307">
        <ele>1855.94</ele>
        <time>2015-08-22T09:48:24Z</time>
      </trkpt>
      <trkpt lat="45.42431" lon="5.90323">
        <ele>1852.38</ele>
        <time>2015-08-22T09:48:43Z</time>
      </trkpt>
      <trkpt lat="45.42443" lon="5.90342">
        <ele>1853.07</ele>
        <time>2015-08-22T09:49:00Z</time>
      </trkpt>
      <trkpt lat="45.42458" lon="5.90356">
        <ele>1851.13</ele>
        <time>2015-08-22T09:49:21Z</time>
      </trkpt>
      <trkpt lat="45.42469" lon="5.90377">
        <ele>1847.89</ele>
        <time>2015-08-22T09:49:40Z</time>
      </trkpt>
      <trkpt lat="45.42486" lon="5.90387">
        <ele>1847.86</ele>
        <time>2015-08-22T09:49:55Z</time>
      </trkpt>
      <trkpt lat="45.42504" lon="5.90384">
        <ele>1846.89</ele>
        <time>2015-08-22T09:50:13Z</time>
      </trkpt>
      <trkpt lat="45.42521" lon="5.90393">
        <ele>1845.22</ele>
        <time>2015-08-22T09:50:30Z</time>
      </trkpt>
      <trkpt lat="45.42539" lon="5.90404">
        <ele>1843.94</ele>
        <time>2015-08-22T09:50:46Z</time>
      </trkpt>
      <trkpt lat="45.42557" lon="5.90405">
        <ele>1842.14</ele>
        <time>2015-08-22T09:51:09Z</time>
      </trkpt>
      <trkpt lat="45.42576" lon="5.90408">
        <ele>1841.88</ele>
        <time>2015-08-22T09:51:25Z</time>
      </trkpt>
      <trkpt lat="45.42593" lon="5.90402">
        <ele>1841.13</ele>
        <time>2015-08-22T09:51:41Z</time>
      </trkpt>
      <trkpt lat="45.42611" lon="5.90395">
        <ele>1839.89</ele>
        <time>2015-08-22T09:51:58Z</time>
      </trkpt>
      <trkpt lat="45.42629" lon="5.90386">
        <ele>1837.01</ele>
        <time>2015-08-22T09:52:16Z</time>
      </trkpt>
      <trkpt lat="45.42647" lon="5.90385">
        <ele>1836.88</ele>
        <time>2015-08-22T09:52:54Z</time>
      </trkpt>
      <trkpt lat="45.42664" lon="5.90393">
        <ele>1837.87</ele>
        <time>2015-08-22T09:53:13Z</time>
      </trkpt>
      <trkpt lat="45.42681" lon="5.90404">
        <ele>1839.85</ele>
        <time>2015-08-22T09:53:31Z</time>
      </trkpt>
      <trkpt lat="45.42699" lon="5.9041">
        <ele>1839.88</ele>
        <time>2015-08-22T09:53:49Z</time>
      </trkpt>
      <trkpt lat="45.42716" lon="5.9042">
        <ele>1840.37</ele>
        <time>2015-08-22T09:54:13Z</time>
      </trkpt>
      <trkpt lat="45.42731" lon="5.90435">
        <ele>1840.41</ele>
        <time>2015-08-22T09:54:32Z</time>
      </trkpt>
      <trkpt lat="45.42748" lon="5.90444">
        <ele>1839</ele>
        <time>2015-08-22T09:55:16Z</time>
      </trkpt>
      <trkpt lat="45.42767" lon="5.90451">
        <ele>1840.75</ele>
        <time>2015-08-22T09:55:34Z</time>
      </trkpt>
      <trkpt lat="45.42784" lon="5.90456">
        <ele>1842.35</ele>
        <time>2015-08-22T09:55:51Z</time>
      </trkpt>
      <trkpt lat="45.42802" lon="5.90462">
        <ele>1841.88</ele>
        <time>2015-08-22T09:56:09Z</time>
      </trkpt>
      <trkpt lat="45.42821" lon="5.90466">
        <ele>1843.88</ele>
        <time>2015-08-22T09:56:28Z</time>
      </trkpt>
      <trkpt lat="45.42838" lon="5.90476">
        <ele>1843.88</ele>
        <time>2015-08-22T09:56:48Z</time>
      </trkpt>
      <trkpt lat="45.42855" lon="5.90484">
        <ele>1843.88</ele>
        <time>2015-08-22T09:57:04Z</time>
      </trkpt>
      <trkpt lat="45.42872" lon="5.90496">
        <ele>1843.88</ele>
        <time>2015-08-22T09:57:21Z</time>
      </trkpt>
      <trkpt lat="45.42889" lon="5.905">
        <ele>1843.88</ele>
        <time>2015-08-22T09:57:36Z</time>
      </trkpt>
      <trkpt lat="45.42908" lon="5.90492">
        <ele>1844.85</ele>
        <time>2015-08-22T09:57:52Z</time>
      </trkpt>
      <trkpt lat="45.42921" lon="5.90474">
        <ele>1844.86</ele>
        <time>2015-08-22T09:58:07Z</time>
      </trkpt>
      <trkpt lat="45.42939" lon="5.90466">
        <ele>1843.13</ele>
        <time>2015-08-22T09:58:24Z</time>
      </trkpt>
      <trkpt lat="45.42957" lon="5.90472">
        <ele>1841.85</ele>
        <time>2015-08-22T09:58:40Z</time>
      </trkpt>
      <trkpt lat="45.42975" lon="5.90474">
        <ele>1840.66</ele>
        <time>2015-08-22T09:58:58Z</time>
      </trkpt>
      <trkpt lat="45.42993" lon="5.90477">
        <ele>1838.92</ele>
        <time>2015-08-22T09:59:18Z</time>
      </trkpt>
      <trkpt lat="45.43011" lon="5.90478">
        <ele>1836.85</ele>
        <time>2015-08-22T09:59:36Z</time>
      </trkpt>
      <trkpt lat="45.43029" lon="5.90482">
        <ele>1836.52</ele>
        <time>2015-08-22T09:59:54Z</time>
      </trkpt>
      <trkpt lat="45.43048" lon="5.90485">
        <ele>1835.18</ele>
        <time>2015-08-22T10:00:11Z</time>
      </trkpt>
      <trkpt lat="45.43067" lon="5.90484">
        <ele>1834.92</ele>
        <time>2015-08-22T10:00:31Z</time>
      </trkpt>
      <trkpt lat="45.43085" lon="5.90484">
        <ele>1837.88</ele>
        <time>2015-08-22T10:00:50Z</time>
      </trkpt>
      <trkpt lat="45.43103" lon="5.90477">
        <ele>1840.62</ele>
        <time>2015-08-22T10:01:08Z</time>
      </trkpt>
      <trkpt lat="45.43121" lon="5.9047">
        <ele>1843.87</ele>
        <time>2015-08-22T10:01:28Z</time>
      </trkpt>
      <trkpt lat="45.4314" lon="5.90465">
        <ele>1846.81</ele>
        <time>2015-08-22T10:01:47Z</time>
      </trkpt>
      <trkpt lat="45.43158" lon="5.9046">
        <ele>1850.38</ele>
        <time>2015-08-22T10:02:07Z</time>
      </trkpt>
      <trkpt lat="45.43176" lon="5.90452">
        <ele>1851.86</ele>
        <time>2015-08-22T10:02:56Z</time>
      </trkpt>
      <trkpt lat="45.43192" lon="5.90441">
        <ele>1853.25</ele>
        <time>2015-08-22T10:03:15Z</time>
      </trkpt>
      <trkpt lat="45.4321" lon="5.90434">
        <ele>1856.33</ele>
        <time>2015-08-22T10:03:35Z</time>
      </trkpt>
      <trkpt lat="45.43226" lon="5.90423">
        <ele>1860.57</ele>
        <time>2015-08-22T10:03:57Z</time>
      </trkpt>
      <trkpt lat="45.43243" lon="5.90412">
        <ele>1865.56</ele>
        <time>2015-08-22T10:04:20Z</time>
      </trkpt>
      <trkpt lat="45.43248" lon="5.90405">
        <ele>1862.88</ele>
        <time>2015-08-22T10:05:55Z</time>
      </trkpt>
      <trkpt lat="45.43248" lon="5.90405">
        <ele>1863.88</ele>
        <time>2015-08-22T10:06:16Z</time>
      </trkpt>
      <trkpt lat="45.43247" lon="5.90406">
        <ele>1862.88</ele>
        <time>2015-08-22T10:07:34Z</time>
      </trkpt>
      <trkpt lat="45.43249" lon="5.90408">
        <ele>1865.88</ele>
        <time>2015-08-22T10:09:05Z</time>
      </trkpt>
      <trkpt lat="45.4326" lon="5.90428">
        <ele>1862.89</ele>
        <time>2015-08-22T10:11:07Z</time>
      </trkpt>
      <trkpt lat="45.43274" lon="5.90445">
        <ele>1860.39</ele>
        <time>2015-08-22T10:11:36Z</time>
      </trkpt>
      <trkpt lat="45.43291" lon="5.90464">
        <ele>1859.88</ele>
        <time>2015-08-22T10:12:07Z</time>
      </trkpt>
      <trkpt lat="45.43294" lon="5.9046">
        <ele>1849.88</ele>
        <time>2015-08-22T10:12:25Z</time>
      </trkpt>
      <trkpt lat="45.43276" lon="5.90453">
        <ele>1855.95</ele>
        <time>2015-08-22T11:00:13Z</time>
      </trkpt>
      <trkpt lat="45.43266" lon="5.90431">
        <ele>1860.56</ele>
        <time>2015-08-22T11:00:39Z</time>
      </trkpt>
      <trkpt lat="45.43248" lon="5.90428">
        <ele>1856.12</ele>
        <time>2015-08-22T11:01:02Z</time>
      </trkpt>
      <trkpt lat="45.4323" lon="5.90429">
        <ele>1858.82</ele>
        <time>2015-08-22T11:01:20Z</time>
      </trkpt>
      <trkpt lat="45.43212" lon="5.90433">
        <ele>1856.06</ele>
        <time>2015-08-22T11:01:40Z</time>
      </trkpt>
      <trkpt lat="45.43193" lon="5.90439">
        <ele>1853.89</ele>
        <time>2015-08-22T11:01:59Z</time>
      </trkpt>
      <trkpt lat="45.43178" lon="5.90453">
        <ele>1853.35</ele>
        <time>2015-08-22T11:02:17Z</time>
      </trkpt>
      <trkpt lat="45.43159" lon="5.90458">
        <ele>1850.14</ele>
        <time>2015-08-22T11:02:34Z</time>
      </trkpt>
      <trkpt lat="45.4314" lon="5.90462">
        <ele>1849.45</ele>
        <time>2015-08-22T11:02:51Z</time>
      </trkpt>
      <trkpt lat="45.43121" lon="5.90467">
        <ele>1847.39</ele>
        <time>2015-08-22T11:03:07Z</time>
      </trkpt>
      <trkpt lat="45.43104" lon="5.90476">
        <ele>1843.42</ele>
        <time>2015-08-22T11:03:26Z</time>
      </trkpt>
      <trkpt lat="45.43086" lon="5.90483">
        <ele>1839.91</ele>
        <time>2015-08-22T11:03:42Z</time>
      </trkpt>
      <trkpt lat="45.43069" lon="5.90496">
        <ele>1835.88</ele>
        <time>2015-08-22T11:04:10Z</time>
      </trkpt>
      <trkpt lat="45.4306" lon="5.90518">
        <ele>1832.91</ele>
        <time>2015-08-22T11:04:39Z</time>
      </trkpt>
      <trkpt lat="45.43043" lon="5.90529">
        <ele>1830.14</ele>
        <time>2015-08-22T11:04:59Z</time>
      </trkpt>
      <trkpt lat="45.43027" lon="5.90541">
        <ele>1827.9</ele>
        <time>2015-08-22T11:05:16Z</time>
      </trkpt>
      <trkpt lat="45.43009" lon="5.90551">
        <ele>1825.89</ele>
        <time>2015-08-22T11:05:33Z</time>
      </trkpt>
      <trkpt lat="45.42999" lon="5.90573">
        <ele>1825</ele>
        <time>2015-08-22T11:05:56Z</time>
      </trkpt>
      <trkpt lat="45.42987" lon="5.90591">
        <ele>1824.88</ele>
        <time>2015-08-22T11:06:13Z</time>
      </trkpt>
      <trkpt lat="45.4297" lon="5.90604">
        <ele>1822.91</ele>
        <time>2015-08-22T11:06:30Z</time>
      </trkpt>
      <trkpt lat="45.42954" lon="5.90615">
        <ele>1822.88</ele>
        <time>2015-08-22T11:06:47Z</time>
      </trkpt>
      <trkpt lat="45.42941" lon="5.90634">
        <ele>1820.45</ele>
        <time>2015-08-22T11:07:04Z</time>
      </trkpt>
      <trkpt lat="45.42926" lon="5.9065">
        <ele>1818.89</ele>
        <time>2015-08-22T11:07:21Z</time>
      </trkpt>
      <trkpt lat="45.42915" lon="5.90672">
        <ele>1815.94</ele>
        <time>2015-08-22T11:07:39Z</time>
      </trkpt>
      <trkpt lat="45.42905" lon="5.90693">
        <ele>1810.26</ele>
        <time>2015-08-22T11:08:03Z</time>
      </trkpt>
      <trkpt lat="45.42894" lon="5.90715">
        <ele>1805.14</ele>
        <time>2015-08-22T11:08:24Z</time>
      </trkpt>
      <trkpt lat="45.42896" lon="5.90742">
        <ele>1799.94</ele>
        <time>2015-08-22T11:08:47Z</time>
      </trkpt>
      <trkpt lat="45.42911" lon="5.90756">
        <ele>1795.38</ele>
        <time>2015-08-22T11:09:18Z</time>
      </trkpt>
      <trkpt lat="45.42917" lon="5.90782">
        <ele>1788.14</ele>
        <time>2015-08-22T11:10:00Z</time>
      </trkpt>
      <trkpt lat="45.42912" lon="5.90807">
        <ele>1786.89</ele>
        <time>2015-08-22T11:10:29Z</time>
      </trkpt>
      <trkpt lat="45.42916" lon="5.90832">
        <ele>1785.88</ele>
        <time>2015-08-22T11:10:58Z</time>
      </trkpt>
      <trkpt lat="45.42927" lon="5.90854">
        <ele>1783.27</ele>
        <time>2015-08-22T11:11:22Z</time>
      </trkpt>
      <trkpt lat="45.42936" lon="5.90876">
        <ele>1778.45</ele>
        <time>2015-08-22T11:11:46Z</time>
      </trkpt>
      <trkpt lat="45.42944" lon="5.90899">
        <ele>1771.97</ele>
        <time>2015-08-22T11:12:11Z</time>
      </trkpt>
      <trkpt lat="45.42948" lon="5.90925">
        <ele>1766.01</ele>
        <time>2015-08-22T11:12:33Z</time>
      </trkpt>
      <trkpt lat="45.42956" lon="5.90949">
        <ele>1762.22</ele>
        <time>2015-08-22T11:12:52Z</time>
      </trkpt>
      <trkpt lat="45.42964" lon="5.90973">
        <ele>1760.01</ele>
        <time>2015-08-22T11:13:12Z</time>
      </trkpt>
      <trkpt lat="45.42967" lon="5.90999">
        <ele>1753.23</ele>
        <time>2015-08-22T11:13:32Z</time>
      </trkpt>
      <trkpt lat="45.42974" lon="5.91023">
        <ele>1751.64</ele>
        <time>2015-08-22T11:13:50Z</time>
      </trkpt>
      <trkpt lat="45.42981" lon="5.91047">
        <ele>1753.05</ele>
        <time>2015-08-22T11:14:09Z</time>
      </trkpt>
      <trkpt lat="45.42991" lon="5.91069">
        <ele>1747.89</ele>
        <time>2015-08-22T11:14:28Z</time>
      </trkpt>
      <trkpt lat="45.42993" lon="5.91095">
        <ele>1740.21</ele>
        <time>2015-08-22T11:14:50Z</time>
      </trkpt>
      <trkpt lat="45.43004" lon="5.91116">
        <ele>1738.21</ele>
        <time>2015-08-22T11:15:05Z</time>
      </trkpt>
      <trkpt lat="45.4302" lon="5.91135">
        <ele>1743.26</ele>
        <time>2015-08-22T11:15:21Z</time>
      </trkpt>
      <trkpt lat="45.43037" lon="5.91144">
        <ele>1744.67</ele>
        <time>2015-08-22T11:15:34Z</time>
      </trkpt>
      <trkpt lat="45.4304" lon="5.9117">
        <ele>1741.57</ele>
        <time>2015-08-22T11:15:51Z</time>
      </trkpt>
      <trkpt lat="45.43045" lon="5.91196">
        <ele>1736.83</ele>
        <time>2015-08-22T11:16:11Z</time>
      </trkpt>
      <trkpt lat="45.43058" lon="5.91216">
        <ele>1734.24</ele>
        <time>2015-08-22T11:16:27Z</time>
      </trkpt>
      <trkpt lat="45.43068" lon="5.91238">
        <ele>1732.23</ele>
        <time>2015-08-22T11:16:46Z</time>
      </trkpt>
      <trkpt lat="45.43083" lon="5.91258">
        <ele>1724.81</ele>
        <time>2015-08-22T11:17:10Z</time>
      </trkpt>
      <trkpt lat="45.43099" lon="5.91273">
        <ele>1725.31</ele>
        <time>2015-08-22T11:17:30Z</time>
      </trkpt>
      <trkpt lat="45.43114" lon="5.91292">
        <ele>1722.87</ele>
        <time>2015-08-22T11:17:47Z</time>
      </trkpt>
      <trkpt lat="45.43133" lon="5.91299">
        <ele>1726.45</ele>
        <time>2015-08-22T11:17:58Z</time>
      </trkpt>
      <trkpt lat="45.43149" lon="5.91314">
        <ele>1720.66</ele>
        <time>2015-08-22T11:18:17Z</time>
      </trkpt>
      <trkpt lat="45.43158" lon="5.91339">
        <ele>1714.75</ele>
        <time>2015-08-22T11:18:50Z</time>
      </trkpt>
      <trkpt lat="45.43176" lon="5.91347">
        <ele>1713.42</ele>
        <time>2015-08-22T11:19:04Z</time>
      </trkpt>
      <trkpt lat="45.43182" lon="5.91373">
        <ele>1705.54</ele>
        <time>2015-08-22T11:19:24Z</time>
      </trkpt>
      <trkpt lat="45.43193" lon="5.91394">
        <ele>1694.16</ele>
        <time>2015-08-22T11:19:45Z</time>
      </trkpt>
      <trkpt lat="45.43199" lon="5.91418">
        <ele>1692.1</ele>
        <time>2015-08-22T11:20:17Z</time>
      </trkpt>
      <trkpt lat="45.43215" lon="5.91433">
        <ele>1684.72</ele>
        <time>2015-08-22T11:20:47Z</time>
      </trkpt>
      <trkpt lat="45.43229" lon="5.91451">
        <ele>1671.51</ele>
        <time>2015-08-22T11:21:42Z</time>
      </trkpt>
      <trkpt lat="45.43242" lon="5.91469">
        <ele>1660.83</ele>
        <time>2015-08-22T11:22:02Z</time>
      </trkpt>
      <trkpt lat="45.43241" lon="5.91495">
        <ele>1653.97</ele>
        <time>2015-08-22T11:22:29Z</time>
      </trkpt>
      <trkpt lat="45.43246" lon="5.9152">
        <ele>1650.86</ele>
        <time>2015-08-22T11:22:51Z</time>
      </trkpt>
      <trkpt lat="45.43254" lon="5.91545">
        <ele>1642.03</ele>
        <time>2015-08-22T11:23:13Z</time>
      </trkpt>
      <trkpt lat="45.43262" lon="5.91569">
        <ele>1636.37</ele>
        <time>2015-08-22T11:23:47Z</time>
      </trkpt>
      <trkpt lat="45.43277" lon="5.91584">
        <ele>1632.35</ele>
        <time>2015-08-22T11:24:12Z</time>
      </trkpt>
      <trkpt lat="45.43285" lon="5.91607">
        <ele>1624.65</ele>
        <time>2015-08-22T11:24:41Z</time>
      </trkpt>
      <trkpt lat="45.43295" lon="5.91628">
        <ele>1619.96</ele>
        <time>2015-08-22T11:25:05Z</time>
      </trkpt>
      <trkpt lat="45.43307" lon="5.91649">
        <ele>1617.92</ele>
        <time>2015-08-22T11:25:33Z</time>
      </trkpt>
      <trkpt lat="45.43323" lon="5.91666">
        <ele>1616.64</ele>
        <time>2015-08-22T11:25:47Z</time>
      </trkpt>
      <trkpt lat="45.43333" lon="5.9169">
        <ele>1608.48</ele>
        <time>2015-08-22T11:26:12Z</time>
      </trkpt>
      <trkpt lat="45.43346" lon="5.9171">
        <ele>1606.89</ele>
        <time>2015-08-22T11:26:40Z</time>
      </trkpt>
      <trkpt lat="45.43344" lon="5.91736">
        <ele>1597.58</ele>
        <time>2015-08-22T11:27:19Z</time>
      </trkpt>
      <trkpt lat="45.43349" lon="5.91761">
        <ele>1595.61</ele>
        <time>2015-08-22T11:27:41Z</time>
      </trkpt>
      <trkpt lat="45.43361" lon="5.91783">
        <ele>1595.2</ele>
        <time>2015-08-22T11:28:13Z</time>
      </trkpt>
      <trkpt lat="45.4337" lon="5.91806">
        <ele>1594.38</ele>
        <time>2015-08-22T11:28:37Z</time>
      </trkpt>
      <trkpt lat="45.43379" lon="5.91828">
        <ele>1580.38</ele>
        <time>2015-08-22T11:29:42Z</time>
      </trkpt>
      <trkpt lat="45.43388" lon="5.91851">
        <ele>1579.39</ele>
        <time>2015-08-22T11:30:01Z</time>
      </trkpt>
      <trkpt lat="45.43393" lon="5.91877">
        <ele>1570.23</ele>
        <time>2015-08-22T11:30:27Z</time>
      </trkpt>
      <trkpt lat="45.43399" lon="5.91902">
        <ele>1568.38</ele>
        <time>2015-08-22T11:36:42Z</time>
      </trkpt>
      <trkpt lat="45.43413" lon="5.9192">
        <ele>1563.28</ele>
        <time>2015-08-22T11:37:01Z</time>
      </trkpt>
      <trkpt lat="45.43425" lon="5.91939">
        <ele>1557.03</ele>
        <time>2015-08-22T11:37:22Z</time>
      </trkpt>
      <trkpt lat="45.43438" lon="5.91959">
        <ele>1557.85</ele>
        <time>2015-08-22T11:37:42Z</time>
      </trkpt>
      <trkpt lat="45.43442" lon="5.91984">
        <ele>1558.92</ele>
        <time>2015-08-22T11:37:59Z</time>
      </trkpt>
      <trkpt lat="45.43451" lon="5.92008">
        <ele>1557.36</ele>
        <time>2015-08-22T11:38:13Z</time>
      </trkpt>
      <trkpt lat="45.43464" lon="5.92026">
        <ele>1548.56</ele>
        <time>2015-08-22T11:38:31Z</time>
      </trkpt>
      <trkpt lat="45.43478" lon="5.92045">
        <ele>1553.85</ele>
        <time>2015-08-22T11:38:47Z</time>
      </trkpt>
      <trkpt lat="45.43487" lon="5.92068">
        <ele>1549.67</ele>
        <time>2015-08-22T11:39:01Z</time>
      </trkpt>
      <trkpt lat="45.43496" lon="5.92091">
        <ele>1546.11</ele>
        <time>2015-08-22T11:39:16Z</time>
      </trkpt>
      <trkpt lat="45.43497" lon="5.92119">
        <ele>1546.83</ele>
        <time>2015-08-22T11:39:35Z</time>
      </trkpt>
      <trkpt lat="45.4351" lon="5.92138">
        <ele>1543.96</ele>
        <time>2015-08-22T11:39:51Z</time>
      </trkpt>
      <trkpt lat="45.43516" lon="5.92163">
        <ele>1545.17</ele>
        <time>2015-08-22T11:40:07Z</time>
      </trkpt>
      <trkpt lat="45.43522" lon="5.92188">
        <ele>1542.11</ele>
        <time>2015-08-22T11:40:23Z</time>
      </trkpt>
      <trkpt lat="45.43534" lon="5.9221">
        <ele>1540.09</ele>
        <time>2015-08-22T11:40:45Z</time>
      </trkpt>
      <trkpt lat="45.43539" lon="5.92235">
        <ele>1535.99</ele>
        <time>2015-08-22T11:41:03Z</time>
      </trkpt>
      <trkpt lat="45.4354" lon="5.92261">
        <ele>1538.75</ele>
        <time>2015-08-22T11:42:09Z</time>
      </trkpt>
      <trkpt lat="45.43539" lon="5.92289">
        <ele>1537.17</ele>
        <time>2015-08-22T11:42:47Z</time>
      </trkpt>
      <trkpt lat="45.43527" lon="5.92309">
        <ele>1537.71</ele>
        <time>2015-08-22T11:43:04Z</time>
      </trkpt>
      <trkpt lat="45.43508" lon="5.92316">
        <ele>1544.69</ele>
        <time>2015-08-22T11:43:27Z</time>
      </trkpt>
      <trkpt lat="45.43491" lon="5.92328">
        <ele>1543.44</ele>
        <time>2015-08-22T11:43:46Z</time>
      </trkpt>
      <trkpt lat="45.43472" lon="5.92334">
        <ele>1548.12</ele>
        <time>2015-08-22T11:44:10Z</time>
      </trkpt>
      <trkpt lat="45.43455" lon="5.92346">
        <ele>1548.02</ele>
        <time>2015-08-22T11:44:29Z</time>
      </trkpt>
      <trkpt lat="45.43438" lon="5.92336">
        <ele>1545.01</ele>
        <time>2015-08-22T11:44:54Z</time>
      </trkpt>
      <trkpt lat="45.43428" lon="5.92313">
        <ele>1550.55</ele>
        <time>2015-08-22T11:45:12Z</time>
      </trkpt>
      <trkpt lat="45.43416" lon="5.92294">
        <ele>1552.93</ele>
        <time>2015-08-22T11:45:30Z</time>
      </trkpt>
      <trkpt lat="45.43403" lon="5.92274">
        <ele>1550.12</ele>
        <time>2015-08-22T11:45:52Z</time>
      </trkpt>
      <trkpt lat="45.43389" lon="5.92257">
        <ele>1560.24</ele>
        <time>2015-08-22T11:46:15Z</time>
      </trkpt>
      <trkpt lat="45.43376" lon="5.92237">
        <ele>1563.74</ele>
        <time>2015-08-22T11:46:42Z</time>
      </trkpt>
      <trkpt lat="45.43365" lon="5.92216">
        <ele>1560.73</ele>
        <time>2015-08-22T11:46:59Z</time>
      </trkpt>
      <trkpt lat="45.43347" lon="5.92206">
        <ele>1569.13</ele>
        <time>2015-08-22T11:47:23Z</time>
      </trkpt>
      <trkpt lat="45.43329" lon="5.92197">
        <ele>1571.34</ele>
        <time>2015-08-22T11:47:41Z</time>
      </trkpt>
      <trkpt lat="45.43316" lon="5.92179">
        <ele>1566.95</ele>
        <time>2015-08-22T11:47:59Z</time>
      </trkpt>
      <trkpt lat="45.43306" lon="5.92157">
        <ele>1563.79</ele>
        <time>2015-08-22T11:48:20Z</time>
      </trkpt>
      <trkpt lat="45.43291" lon="5.92141">
        <ele>1563.86</ele>
        <time>2015-08-22T11:48:36Z</time>
      </trkpt>
      <trkpt lat="45.43274" lon="5.92132">
        <ele>1564.89</ele>
        <time>2015-08-22T11:48:51Z</time>
      </trkpt>
      <trkpt lat="45.43256" lon="5.92134">
        <ele>1564.73</ele>
        <time>2015-08-22T11:49:14Z</time>
      </trkpt>
      <trkpt lat="45.4324" lon="5.92147">
        <ele>1561.15</ele>
        <time>2015-08-22T11:49:33Z</time>
      </trkpt>
      <trkpt lat="45.43228" lon="5.92165">
        <ele>1559.37</ele>
        <time>2015-08-22T11:49:49Z</time>
      </trkpt>
      <trkpt lat="45.43212" lon="5.92178">
        <ele>1565.17</ele>
        <time>2015-08-22T11:50:06Z</time>
      </trkpt>
      <trkpt lat="45.43197" lon="5.92192">
        <ele>1563.5</ele>
        <time>2015-08-22T11:50:26Z</time>
      </trkpt>
      <trkpt lat="45.43178" lon="5.92194">
        <ele>1565.85</ele>
        <time>2015-08-22T11:50:44Z</time>
      </trkpt>
      <trkpt lat="45.43161" lon="5.92205">
        <ele>1567.82</ele>
        <time>2015-08-22T11:51:01Z</time>
      </trkpt>
      <trkpt lat="45.43143" lon="5.92201">
        <ele>1570.25</ele>
        <time>2015-08-22T11:51:29Z</time>
      </trkpt>
      <trkpt lat="45.43125" lon="5.92197">
        <ele>1573.51</ele>
        <time>2015-08-22T11:51:58Z</time>
      </trkpt>
      <trkpt lat="45.43107" lon="5.92192">
        <ele>1573.95</ele>
        <time>2015-08-22T11:52:11Z</time>
      </trkpt>
      <trkpt lat="45.43088" lon="5.92189">
        <ele>1577.89</ele>
        <time>2015-08-22T11:52:39Z</time>
      </trkpt>
      <trkpt lat="45.4307" lon="5.92183">
        <ele>1577.64</ele>
        <time>2015-08-22T11:52:57Z</time>
      </trkpt>
      <trkpt lat="45.43054" lon="5.92172">
        <ele>1583.95</ele>
        <time>2015-08-22T11:53:14Z</time>
      </trkpt>
      <trkpt lat="45.43036" lon="5.9217">
        <ele>1579.76</ele>
        <time>2015-08-22T11:53:42Z</time>
      </trkpt>
      <trkpt lat="45.43018" lon="5.92166">
        <ele>1578.03</ele>
        <time>2015-08-22T11:53:56Z</time>
      </trkpt>
      <trkpt lat="45.43" lon="5.92156">
        <ele>1583.54</ele>
        <time>2015-08-22T11:54:18Z</time>
      </trkpt>
      <trkpt lat="45.42982" lon="5.92155">
        <ele>1585.6</ele>
        <time>2015-08-22T11:54:40Z</time>
      </trkpt>
      <trkpt lat="45.42963" lon="5.92153">
        <ele>1586.16</ele>
        <time>2015-08-22T11:54:59Z</time>
      </trkpt>
      <trkpt lat="45.42945" lon="5.92149">
        <ele>1588.74</ele>
        <time>2015-08-22T11:55:15Z</time>
      </trkpt>
      <trkpt lat="45.42927" lon="5.92145">
        <ele>1590.44</ele>
        <time>2015-08-22T11:55:34Z</time>
      </trkpt>
      <trkpt lat="45.42913" lon="5.92128">
        <ele>1589.88</ele>
        <time>2015-08-22T11:55:55Z</time>
      </trkpt>
      <trkpt lat="45.42906" lon="5.92104">
        <ele>1591.37</ele>
        <time>2015-08-22T11:56:13Z</time>
      </trkpt>
      <trkpt lat="45.4289" lon="5.92089">
        <ele>1593.63</ele>
        <time>2015-08-22T11:56:33Z</time>
      </trkpt>
      <trkpt lat="45.42873" lon="5.92097">
        <ele>1600.86</ele>
        <time>2015-08-22T11:57:04Z</time>
      </trkpt>
      <trkpt lat="45.42854" lon="5.921">
        <ele>1602.75</ele>
        <time>2015-08-22T11:57:30Z</time>
      </trkpt>
      <trkpt lat="45.42837" lon="5.92091">
        <ele>1600.1</ele>
        <time>2015-08-22T11:57:53Z</time>
      </trkpt>
      <trkpt lat="45.4282" lon="5.92081">
        <ele>1596.07</ele>
        <time>2015-08-22T11:58:15Z</time>
      </trkpt>
      <trkpt lat="45.42802" lon="5.92073">
        <ele>1594.91</ele>
        <time>2015-08-22T11:58:32Z</time>
      </trkpt>
      <trkpt lat="45.42784" lon="5.92067">
        <ele>1594.88</ele>
        <time>2015-08-22T11:58:50Z</time>
      </trkpt>
      <trkpt lat="45.42765" lon="5.92063">
        <ele>1595.88</ele>
        <time>2015-08-22T11:59:09Z</time>
      </trkpt>
      <trkpt lat="45.42748" lon="5.92057">
        <ele>1597.72</ele>
        <time>2015-08-22T11:59:26Z</time>
      </trkpt>
      <trkpt lat="45.42731" lon="5.92046">
        <ele>1598.66</ele>
        <time>2015-08-22T11:59:44Z</time>
      </trkpt>
      <trkpt lat="45.42714" lon="5.92036">
        <ele>1599.36</ele>
        <time>2015-08-22T12:00:02Z</time>
      </trkpt>
      <trkpt lat="45.42697" lon="5.92027">
        <ele>1599.85</ele>
        <time>2015-08-22T12:00:35Z</time>
      </trkpt>
      <trkpt lat="45.42679" lon="5.92024">
        <ele>1601.5</ele>
        <time>2015-08-22T12:00:54Z</time>
      </trkpt>
      <trkpt lat="45.42661" lon="5.92018">
        <ele>1601.87</ele>
        <time>2015-08-22T12:01:13Z</time>
      </trkpt>
      <trkpt lat="45.42644" lon="5.92009">
        <ele>1601.38</ele>
        <time>2015-08-22T12:01:30Z</time>
      </trkpt>
      <trkpt lat="45.42627" lon="5.91999">
        <ele>1602.35</ele>
        <time>2015-08-22T12:01:47Z</time>
      </trkpt>
      <trkpt lat="45.4261" lon="5.91988">
        <ele>1603.44</ele>
        <time>2015-08-22T12:02:06Z</time>
      </trkpt>
      <trkpt lat="45.42595" lon="5.91973">
        <ele>1605.75</ele>
        <time>2015-08-22T12:02:25Z</time>
      </trkpt>
      <trkpt lat="45.42577" lon="5.91966">
        <ele>1608.85</ele>
        <time>2015-08-22T12:02:52Z</time>
      </trkpt>
      <trkpt lat="45.42562" lon="5.91953">
        <ele>1612.31</ele>
        <time>2015-08-22T12:03:11Z</time>
      </trkpt>
      <trkpt lat="45.42547" lon="5.91938">
        <ele>1613.83</ele>
        <time>2015-08-22T12:03:36Z</time>
      </trkpt>
      <trkpt lat="45.42532" lon="5.91922">
        <ele>1617.77</ele>
        <time>2015-08-22T12:04:08Z</time>
      </trkpt>
      <trkpt lat="45.42516" lon="5.91912">
        <ele>1621.76</ele>
        <time>2015-08-22T12:04:37Z</time>
      </trkpt>
      <trkpt lat="45.42501" lon="5.91897">
        <ele>1623.88</ele>
        <time>2015-08-22T12:04:58Z</time>
      </trkpt>
      <trkpt lat="45.42491" lon="5.91875">
        <ele>1625.82</ele>
        <time>2015-08-22T12:05:18Z</time>
      </trkpt>
      <trkpt lat="45.4248" lon="5.91854">
        <ele>1627.38</ele>
        <time>2015-08-22T12:05:38Z</time>
      </trkpt>
      <trkpt lat="45.42461" lon="5.91848">
        <ele>1628.86</ele>
        <time>2015-08-22T12:05:58Z</time>
      </trkpt>
      <trkpt lat="45.42443" lon="5.91851">
        <ele>1629.88</ele>
        <time>2015-08-22T12:06:17Z</time>
      </trkpt>
      <trkpt lat="45.42426" lon="5.9184">
        <ele>1633.63</ele>
        <time>2015-08-22T12:06:37Z</time>
      </trkpt>
      <trkpt lat="45.42413" lon="5.91821">
        <ele>1635.85</ele>
        <time>2015-08-22T12:06:58Z</time>
      </trkpt>
      <trkpt lat="45.42395" lon="5.91815">
        <ele>1638</ele>
        <time>2015-08-22T12:07:26Z</time>
      </trkpt>
      <trkpt lat="45.4238" lon="5.918">
        <ele>1638.75</ele>
        <time>2015-08-22T12:07:46Z</time>
      </trkpt>
      <trkpt lat="45.42362" lon="5.91795">
        <ele>1638.32</ele>
        <time>2015-08-22T12:08:05Z</time>
      </trkpt>
      <trkpt lat="45.42348" lon="5.91778">
        <ele>1640.88</ele>
        <time>2015-08-22T12:08:28Z</time>
      </trkpt>
      <trkpt lat="45.42337" lon="5.91757">
        <ele>1639.88</ele>
        <time>2015-08-22T12:09:15Z</time>
      </trkpt>
      <trkpt lat="45.42321" lon="5.91746">
        <ele>1640.38</ele>
        <time>2015-08-22T12:09:40Z</time>
      </trkpt>
      <trkpt lat="45.42305" lon="5.91732">
        <ele>1641.76</ele>
        <time>2015-08-22T12:10:07Z</time>
      </trkpt>
      <trkpt lat="45.42286" lon="5.9173">
        <ele>1641.88</ele>
        <time>2015-08-22T12:10:26Z</time>
      </trkpt>
      <trkpt lat="45.4227" lon="5.91721">
        <ele>1642.91</ele>
        <time>2015-08-22T12:10:44Z</time>
      </trkpt>
      <trkpt lat="45.42251" lon="5.91718">
        <ele>1643.94</ele>
        <time>2015-08-22T12:11:02Z</time>
      </trkpt>
      <trkpt lat="45.42232" lon="5.91715">
        <ele>1644.63</ele>
        <time>2015-08-22T12:11:20Z</time>
      </trkpt>
      <trkpt lat="45.42214" lon="5.9172">
        <ele>1644.75</ele>
        <time>2015-08-22T12:11:36Z</time>
      </trkpt>
      <trkpt lat="45.42196" lon="5.91723">
        <ele>1646.81</ele>
        <time>2015-08-22T12:11:55Z</time>
      </trkpt>
      <trkpt lat="45.42178" lon="5.91726">
        <ele>1648.91</ele>
        <time>2015-08-22T12:12:16Z</time>
      </trkpt>
      <trkpt lat="45.42159" lon="5.91724">
        <ele>1649.67</ele>
        <time>2015-08-22T12:12:36Z</time>
      </trkpt>
      <trkpt lat="45.42144" lon="5.9171">
        <ele>1650.87</ele>
        <time>2015-08-22T12:12:53Z</time>
      </trkpt>
      <trkpt lat="45.42133" lon="5.91688">
        <ele>1650.94</ele>
        <time>2015-08-22T12:13:13Z</time>
      </trkpt>
      <trkpt lat="45.42116" lon="5.91682">
        <ele>1653.93</ele>
        <time>2015-08-22T12:13:31Z</time>
      </trkpt>
      <trkpt lat="45.42099" lon="5.91672">
        <ele>1656.13</ele>
        <time>2015-08-22T12:13:56Z</time>
      </trkpt>
      <trkpt lat="45.42084" lon="5.91655">
        <ele>1654.75</ele>
        <time>2015-08-22T12:14:16Z</time>
      </trkpt>
      <trkpt lat="45.42069" lon="5.9164">
        <ele>1656.38</ele>
        <time>2015-08-22T12:14:32Z</time>
      </trkpt>
      <trkpt lat="45.42053" lon="5.91629">
        <ele>1656.88</ele>
        <time>2015-08-22T12:14:49Z</time>
      </trkpt>
      <trkpt lat="45.42034" lon="5.91626">
        <ele>1657.88</ele>
        <time>2015-08-22T12:15:07Z</time>
      </trkpt>
      <trkpt lat="45.42017" lon="5.91618">
        <ele>1656.76</ele>
        <time>2015-08-22T12:15:24Z</time>
      </trkpt>
      <trkpt lat="45.41999" lon="5.91613">
        <ele>1657.09</ele>
        <time>2015-08-22T12:15:44Z</time>
      </trkpt>
      <trkpt lat="45.41981" lon="5.9161">
        <ele>1658.38</ele>
        <time>2015-08-22T12:16:01Z</time>
      </trkpt>
      <trkpt lat="45.41963" lon="5.91605">
        <ele>1657.89</ele>
        <time>2015-08-22T12:16:17Z</time>
      </trkpt>
      <trkpt lat="45.41945" lon="5.91599">
        <ele>1656.94</ele>
        <time>2015-08-22T12:16:33Z</time>
      </trkpt>
      <trkpt lat="45.41928" lon="5.91591">
        <ele>1657.88</ele>
        <time>2015-08-22T12:16:49Z</time>
      </trkpt>
      <trkpt lat="45.4191" lon="5.91589">
        <ele>1657.88</ele>
        <time>2015-08-22T12:17:13Z</time>
      </trkpt>
      <trkpt lat="45.41892" lon="5.91586">
        <ele>1658.41</ele>
        <time>2015-08-22T12:17:37Z</time>
      </trkpt>
      <trkpt lat="45.41875" lon="5.91581">
        <ele>1660.59</ele>
        <time>2015-08-22T12:18:55Z</time>
      </trkpt>
      <trkpt lat="45.41857" lon="5.91574">
        <ele>1661.88</ele>
        <time>2015-08-22T12:19:19Z</time>
      </trkpt>
      <trkpt lat="45.41839" lon="5.91567">
        <ele>1664.75</ele>
        <time>2015-08-22T12:19:41Z</time>
      </trkpt>
      <trkpt lat="45.41823" lon="5.91554">
        <ele>1664.86</ele>
        <time>2015-08-22T12:20:12Z</time>
      </trkpt>
      <trkpt lat="45.41807" lon="5.91541">
        <ele>1665</ele>
        <time>2015-08-22T12:20:34Z</time>
      </trkpt>
      <trkpt lat="45.41792" lon="5.91526">
        <ele>1665.87</ele>
        <time>2015-08-22T12:20:55Z</time>
      </trkpt>
      <trkpt lat="45.41774" lon="5.91518">
        <ele>1666.76</ele>
        <time>2015-08-22T12:21:14Z</time>
      </trkpt>
      <trkpt lat="45.41757" lon="5.91505">
        <ele>1667.63</ele>
        <time>2015-08-22T12:21:33Z</time>
      </trkpt>
      <trkpt lat="45.4174" lon="5.91497">
        <ele>1669.13</ele>
        <time>2015-08-22T12:21:52Z</time>
      </trkpt>
      <trkpt lat="45.41722" lon="5.91488">
        <ele>1668.88</ele>
        <time>2015-08-22T12:22:20Z</time>
      </trkpt>
      <trkpt lat="45.41705" lon="5.91479">
        <ele>1669.88</ele>
        <time>2015-08-22T12:22:38Z</time>
      </trkpt>
      <trkpt lat="45.4169" lon="5.91463">
        <ele>1669.88</ele>
        <time>2015-08-22T12:22:58Z</time>
      </trkpt>
      <trkpt lat="45.41675" lon="5.91445">
        <ele>1667.94</ele>
        <time>2015-08-22T12:23:22Z</time>
      </trkpt>
      <trkpt lat="45.41658" lon="5.91441">
        <ele>1668.88</ele>
        <time>2015-08-22T12:23:42Z</time>
      </trkpt>
      <trkpt lat="45.41639" lon="5.91437">
        <ele>1672.5</ele>
        <time>2015-08-22T12:24:02Z</time>
      </trkpt>
      <trkpt lat="45.41621" lon="5.9143">
        <ele>1673.79</ele>
        <time>2015-08-22T12:24:24Z</time>
      </trkpt>
      <trkpt lat="45.41603" lon="5.91435">
        <ele>1673.16</ele>
        <time>2015-08-22T12:24:45Z</time>
      </trkpt>
      <trkpt lat="45.41588" lon="5.91449">
        <ele>1672.13</ele>
        <time>2015-08-22T12:25:04Z</time>
      </trkpt>
      <trkpt lat="45.41571" lon="5.9146">
        <ele>1672.88</ele>
        <time>2015-08-22T12:26:05Z</time>
      </trkpt>
      <trkpt lat="45.41552" lon="5.91464">
        <ele>1670.88</ele>
        <time>2015-08-22T12:26:26Z</time>
      </trkpt>
      <trkpt lat="45.41534" lon="5.91463">
        <ele>1669.88</ele>
        <time>2015-08-22T12:26:43Z</time>
      </trkpt>
      <trkpt lat="45.41515" lon="5.91463">
        <ele>1670.88</ele>
        <time>2015-08-22T12:27:00Z</time>
      </trkpt>
      <trkpt lat="45.41498" lon="5.91473">
        <ele>1669.89</ele>
        <time>2015-08-22T12:27:17Z</time>
      </trkpt>
      <trkpt lat="45.41487" lon="5.91494">
        <ele>1667.39</ele>
        <time>2015-08-22T12:27:35Z</time>
      </trkpt>
      <trkpt lat="45.41469" lon="5.91502">
        <ele>1665.89</ele>
        <time>2015-08-22T12:27:52Z</time>
      </trkpt>
      <trkpt lat="45.41452" lon="5.91491">
        <ele>1667.34</ele>
        <time>2015-08-22T12:28:13Z</time>
      </trkpt>
      <trkpt lat="45.41437" lon="5.91475">
        <ele>1666.88</ele>
        <time>2015-08-22T12:28:30Z</time>
      </trkpt>
      <trkpt lat="45.41422" lon="5.91459">
        <ele>1666.86</ele>
        <time>2015-08-22T12:28:51Z</time>
      </trkpt>
      <trkpt lat="45.41415" lon="5.91436">
        <ele>1665.01</ele>
        <time>2015-08-22T12:29:11Z</time>
      </trkpt>
      <trkpt lat="45.414" lon="5.91419">
        <ele>1665.65</ele>
        <time>2015-08-22T12:29:44Z</time>
      </trkpt>
      <trkpt lat="45.41382" lon="5.91411">
        <ele>1665</ele>
        <time>2015-08-22T12:30:16Z</time>
      </trkpt>
      <trkpt lat="45.41373" lon="5.91389">
        <ele>1660.89</ele>
        <time>2015-08-22T12:30:49Z</time>
      </trkpt>
      <trkpt lat="45.41355" lon="5.91383">
        <ele>1663.63</ele>
        <time>2015-08-22T12:31:08Z</time>
      </trkpt>
      <trkpt lat="45.41337" lon="5.91373">
        <ele>1665.88</ele>
        <time>2015-08-22T12:31:29Z</time>
      </trkpt>
      <trkpt lat="45.41319" lon="5.91375">
        <ele>1660.9</ele>
        <time>2015-08-22T12:31:59Z</time>
      </trkpt>
      <trkpt lat="45.41301" lon="5.91385">
        <ele>1661.85</ele>
        <time>2015-08-22T12:32:16Z</time>
      </trkpt>
      <trkpt lat="45.41283" lon="5.91386">
        <ele>1661.63</ele>
        <time>2015-08-22T12:32:36Z</time>
      </trkpt>
      <trkpt lat="45.41265" lon="5.91384">
        <ele>1659.89</ele>
        <time>2015-08-22T12:33:17Z</time>
      </trkpt>
      <trkpt lat="45.41249" lon="5.91371">
        <ele>1657.55</ele>
        <time>2015-08-22T12:33:58Z</time>
      </trkpt>
      <trkpt lat="45.41232" lon="5.91362">
        <ele>1654.41</ele>
        <time>2015-08-22T12:34:28Z</time>
      </trkpt>
      <trkpt lat="45.41216" lon="5.91348">
        <ele>1654.5</ele>
        <time>2015-08-22T12:35:00Z</time>
      </trkpt>
      <trkpt lat="45.41199" lon="5.91357">
        <ele>1654.13</ele>
        <time>2015-08-22T12:35:56Z</time>
      </trkpt>
      <trkpt lat="45.4118" lon="5.91361">
        <ele>1652.88</ele>
        <time>2015-08-22T12:36:20Z</time>
      </trkpt>
      <trkpt lat="45.41165" lon="5.91344">
        <ele>1652.94</ele>
        <time>2015-08-22T12:36:50Z</time>
      </trkpt>
      <trkpt lat="45.41158" lon="5.91321">
        <ele>1651.53</ele>
        <time>2015-08-22T12:37:06Z</time>
      </trkpt>
      <trkpt lat="45.41146" lon="5.91301">
        <ele>1650.89</ele>
        <time>2015-08-22T12:37:24Z</time>
      </trkpt>
      <trkpt lat="45.41131" lon="5.91286">
        <ele>1651.33</ele>
        <time>2015-08-22T12:37:47Z</time>
      </trkpt>
      <trkpt lat="45.41113" lon="5.91281">
        <ele>1652.94</ele>
        <time>2015-08-22T12:38:08Z</time>
      </trkpt>
      <trkpt lat="45.41094" lon="5.91281">
        <ele>1655.83</ele>
        <time>2015-08-22T12:38:29Z</time>
      </trkpt>
      <trkpt lat="45.41075" lon="5.91277">
        <ele>1659.38</ele>
        <time>2015-08-22T12:38:50Z</time>
      </trkpt>
      <trkpt lat="45.41064" lon="5.91257">
        <ele>1658.13</ele>
        <time>2015-08-22T12:39:14Z</time>
      </trkpt>
      <trkpt lat="45.41059" lon="5.91232">
        <ele>1655.86</ele>
        <time>2015-08-22T12:39:31Z</time>
      </trkpt>
      <trkpt lat="45.41046" lon="5.91212">
        <ele>1655.38</ele>
        <time>2015-08-22T12:39:49Z</time>
      </trkpt>
      <trkpt lat="45.41032" lon="5.91195">
        <ele>1653.89</ele>
        <time>2015-08-22T12:40:06Z</time>
      </trkpt>
      <trkpt lat="45.41025" lon="5.91171">
        <ele>1652.4</ele>
        <time>2015-08-22T12:40:24Z</time>
      </trkpt>
      <trkpt lat="45.41007" lon="5.9118">
        <ele>1639.01</ele>
        <time>2015-08-22T12:41:50Z</time>
      </trkpt>
      <trkpt lat="45.40994" lon="5.91198">
        <ele>1629.5</ele>
        <time>2015-08-22T12:42:25Z</time>
      </trkpt>
      <trkpt lat="45.4098" lon="5.91215">
        <ele>1614.94</ele>
        <time>2015-08-22T12:43:14Z</time>
      </trkpt>
      <trkpt lat="45.40975" lon="5.9124">
        <ele>1600.4</ele>
        <time>2015-08-22T12:44:14Z</time>
      </trkpt>
      <trkpt lat="45.40958" lon="5.91231">
        <ele>1592.44</ele>
        <time>2015-08-22T12:45:18Z</time>
      </trkpt>
      <trkpt lat="45.40941" lon="5.91221">
        <ele>1585.2</ele>
        <time>2015-08-22T12:45:44Z</time>
      </trkpt>
      <trkpt lat="45.40925" lon="5.91209">
        <ele>1583.85</ele>
        <time>2015-08-22T12:46:14Z</time>
      </trkpt>
      <trkpt lat="45.4091" lon="5.91193">
        <ele>1577.03</ele>
        <time>2015-08-22T12:46:39Z</time>
      </trkpt>
      <trkpt lat="45.40894" lon="5.91182">
        <ele>1568.6</ele>
        <time>2015-08-22T12:47:10Z</time>
      </trkpt>
      <trkpt lat="45.40879" lon="5.91167">
        <ele>1562.88</ele>
        <time>2015-08-22T12:47:51Z</time>
      </trkpt>
      <trkpt lat="45.4086" lon="5.91169">
        <ele>1549.41</ele>
        <time>2015-08-22T12:48:39Z</time>
      </trkpt>
      <trkpt lat="45.40843" lon="5.91159">
        <ele>1542.93</ele>
        <time>2015-08-22T12:49:52Z</time>
      </trkpt>
      <trkpt lat="45.40832" lon="5.9118">
        <ele>1537.07</ele>
        <time>2015-08-22T12:51:29Z</time>
      </trkpt>
      <trkpt lat="45.40841" lon="5.91203">
        <ele>1529.76</ele>
        <time>2015-08-22T12:51:53Z</time>
      </trkpt>
      <trkpt lat="45.40843" lon="5.91228">
        <ele>1524.16</ele>
        <time>2015-08-22T12:52:16Z</time>
      </trkpt>
      <trkpt lat="45.40847" lon="5.91255">
        <ele>1519.98</ele>
        <time>2015-08-22T12:52:34Z</time>
      </trkpt>
      <trkpt lat="45.40843" lon="5.91282">
        <ele>1519.43</ele>
        <time>2015-08-22T12:52:56Z</time>
      </trkpt>
      <trkpt lat="45.40837" lon="5.91308">
        <ele>1516.4</ele>
        <time>2015-08-22T12:53:16Z</time>
      </trkpt>
      <trkpt lat="45.40818" lon="5.91305">
        <ele>1517.95</ele>
        <time>2015-08-22T12:53:46Z</time>
      </trkpt>
      <trkpt lat="45.40804" lon="5.91288">
        <ele>1514.22</ele>
        <time>2015-08-22T12:54:20Z</time>
      </trkpt>
      <trkpt lat="45.40786" lon="5.91292">
        <ele>1502.63</ele>
        <time>2015-08-22T12:55:01Z</time>
      </trkpt>
      <trkpt lat="45.40767" lon="5.91292">
        <ele>1498.51</ele>
        <time>2015-08-22T12:55:35Z</time>
      </trkpt>
      <trkpt lat="45.40753" lon="5.91277">
        <ele>1500.86</ele>
        <time>2015-08-22T12:56:47Z</time>
      </trkpt>
      <trkpt lat="45.40737" lon="5.91265">
        <ele>1488.46</ele>
        <time>2015-08-22T12:59:59Z</time>
      </trkpt>
      <trkpt lat="45.40721" lon="5.9125">
        <ele>1479.91</ele>
        <time>2015-08-22T13:00:23Z</time>
      </trkpt>
      <trkpt lat="45.40707" lon="5.91235">
        <ele>1478.49</ele>
        <time>2015-08-22T13:00:45Z</time>
      </trkpt>
      <trkpt lat="45.40692" lon="5.91218">
        <ele>1477.62</ele>
        <time>2015-08-22T13:01:00Z</time>
      </trkpt>
      <trkpt lat="45.40685" lon="5.91194">
        <ele>1484.04</ele>
        <time>2015-08-22T13:01:16Z</time>
      </trkpt>
      <trkpt lat="45.40673" lon="5.91174">
        <ele>1482.25</ele>
        <time>2015-08-22T13:01:34Z</time>
      </trkpt>
      <trkpt lat="45.40667" lon="5.91149">
        <ele>1483.84</ele>
        <time>2015-08-22T13:01:52Z</time>
      </trkpt>
      <trkpt lat="45.40659" lon="5.91126">
        <ele>1478.17</ele>
        <time>2015-08-22T13:02:06Z</time>
      </trkpt>
      <trkpt lat="45.40653" lon="5.91102">
        <ele>1476.12</ele>
        <time>2015-08-22T13:02:27Z</time>
      </trkpt>
      <trkpt lat="45.40641" lon="5.91082">
        <ele>1466.88</ele>
        <time>2015-08-22T13:03:01Z</time>
      </trkpt>
      <trkpt lat="45.40623" lon="5.91078">
        <ele>1459.87</ele>
        <time>2015-08-22T13:03:30Z</time>
      </trkpt>
      <trkpt lat="45.40611" lon="5.91059">
        <ele>1457.08</ele>
        <time>2015-08-22T13:03:47Z</time>
      </trkpt>
      <trkpt lat="45.40597" lon="5.91039">
        <ele>1452.43</ele>
        <time>2015-08-22T13:04:11Z</time>
      </trkpt>
      <trkpt lat="45.40583" lon="5.91022">
        <ele>1453.66</ele>
        <time>2015-08-22T13:04:31Z</time>
      </trkpt>
      <trkpt lat="45.40567" lon="5.9101">
        <ele>1452.82</ele>
        <time>2015-08-22T13:04:46Z</time>
      </trkpt>
      <trkpt lat="45.40552" lon="5.90995">
        <ele>1449.54</ele>
        <time>2015-08-22T13:05:02Z</time>
      </trkpt>
      <trkpt lat="45.4054" lon="5.90974">
        <ele>1449.88</ele>
        <time>2015-08-22T13:05:17Z</time>
      </trkpt>
      <trkpt lat="45.40527" lon="5.90955">
        <ele>1447.88</ele>
        <time>2015-08-22T13:05:38Z</time>
      </trkpt>
      <trkpt lat="45.40512" lon="5.9094">
        <ele>1448.07</ele>
        <time>2015-08-22T13:05:55Z</time>
      </trkpt>
      <trkpt lat="45.40503" lon="5.90917">
        <ele>1450.51</ele>
        <time>2015-08-22T13:06:18Z</time>
      </trkpt>
      <trkpt lat="45.40496" lon="5.90893">
        <ele>1448.36</ele>
        <time>2015-08-22T13:06:33Z</time>
      </trkpt>
      <trkpt lat="45.40487" lon="5.90869">
        <ele>1446.9</ele>
        <time>2015-08-22T13:07:15Z</time>
      </trkpt>
      <trkpt lat="45.40477" lon="5.90848">
        <ele>1444.27</ele>
        <time>2015-08-22T13:07:31Z</time>
      </trkpt>
      <trkpt lat="45.40465" lon="5.90828">
        <ele>1440.22</ele>
        <time>2015-08-22T13:07:47Z</time>
      </trkpt>
      <trkpt lat="45.40456" lon="5.90805">
        <ele>1442.93</ele>
        <time>2015-08-22T13:08:11Z</time>
      </trkpt>
      <trkpt lat="45.40445" lon="5.90784">
        <ele>1438.88</ele>
        <time>2015-08-22T13:08:32Z</time>
      </trkpt>
      <trkpt lat="45.40436" lon="5.90762">
        <ele>1437.44</ele>
        <time>2015-08-22T13:08:47Z</time>
      </trkpt>
      <trkpt lat="45.40426" lon="5.90739">
        <ele>1426.68</ele>
        <time>2015-08-22T13:09:18Z</time>
      </trkpt>
      <trkpt lat="45.40419" lon="5.90716">
        <ele>1423.63</ele>
        <time>2015-08-22T13:09:55Z</time>
      </trkpt>
      <trkpt lat="45.40414" lon="5.90691">
        <ele>1418.88</ele>
        <time>2015-08-22T13:10:33Z</time>
      </trkpt>
      <trkpt lat="45.4041" lon="5.90664">
        <ele>1404.7</ele>
        <time>2015-08-22T13:11:12Z</time>
      </trkpt>
      <trkpt lat="45.40403" lon="5.9064">
        <ele>1402.89</ele>
        <time>2015-08-22T13:11:47Z</time>
      </trkpt>
      <trkpt lat="45.40395" lon="5.90615">
        <ele>1402.24</ele>
        <time>2015-08-22T13:12:20Z</time>
      </trkpt>
      <trkpt lat="45.40383" lon="5.90595">
        <ele>1391.44</ele>
        <time>2015-08-22T13:12:56Z</time>
      </trkpt>
      <trkpt lat="45.40367" lon="5.90581">
        <ele>1380.26</ele>
        <time>2015-08-22T13:13:31Z</time>
      </trkpt>
      <trkpt lat="45.40353" lon="5.90564">
        <ele>1375.39</ele>
        <time>2015-08-22T13:14:08Z</time>
      </trkpt>
      <trkpt lat="45.40348" lon="5.90539">
        <ele>1360</ele>
        <time>2015-08-22T13:15:01Z</time>
      </trkpt>
      <trkpt lat="45.40331" lon="5.90528">
        <ele>1350.44</ele>
        <time>2015-08-22T13:15:43Z</time>
      </trkpt>
      <trkpt lat="45.40346" lon="5.90513">
        <ele>1346.8</ele>
        <time>2015-08-22T13:16:34Z</time>
      </trkpt>
      <trkpt lat="45.40364" lon="5.90506">
        <ele>1327.71</ele>
        <time>2015-08-22T13:17:35Z</time>
      </trkpt>
      <trkpt lat="45.40354" lon="5.9048">
        <ele>1321.92</ele>
        <time>2015-08-22T13:18:02Z</time>
      </trkpt>
      <trkpt lat="45.40364" lon="5.90459">
        <ele>1313.17</ele>
        <time>2015-08-22T13:19:05Z</time>
      </trkpt>
      <trkpt lat="45.40363" lon="5.90433">
        <ele>1316.47</ele>
        <time>2015-08-22T13:19:24Z</time>
      </trkpt>
      <trkpt lat="45.4035" lon="5.90413">
        <ele>1299.12</ele>
        <time>2015-08-22T13:20:33Z</time>
      </trkpt>
      <trkpt lat="45.40342" lon="5.90388">
        <ele>1290.94</ele>
        <time>2015-08-22T13:21:02Z</time>
      </trkpt>
      <trkpt lat="45.40353" lon="5.90367">
        <ele>1280.69</ele>
        <time>2015-08-22T13:21:51Z</time>
      </trkpt>
      <trkpt lat="45.40358" lon="5.90341">
        <ele>1271.87</ele>
        <time>2015-08-22T13:22:15Z</time>
      </trkpt>
      <trkpt lat="45.40358" lon="5.90315">
        <ele>1257.7</ele>
        <time>2015-08-22T13:23:03Z</time>
      </trkpt>
      <trkpt lat="45.40354" lon="5.90289">
        <ele>1261.48</ele>
        <time>2015-08-22T13:23:26Z</time>
      </trkpt>
      <trkpt lat="45.40336" lon="5.90291">
        <ele>1248.15</ele>
        <time>2015-08-22T13:24:10Z</time>
      </trkpt>
      <trkpt lat="45.40327" lon="5.90266">
        <ele>1235.96</ele>
        <time>2015-08-22T13:24:50Z</time>
      </trkpt>
      <trkpt lat="45.40328" lon="5.9024">
        <ele>1236.94</ele>
        <time>2015-08-22T13:25:12Z</time>
      </trkpt>
      <trkpt lat="45.4032" lon="5.90216">
        <ele>1232.01</ele>
        <time>2015-08-22T13:25:50Z</time>
      </trkpt>
      <trkpt lat="45.40318" lon="5.9019">
        <ele>1219.98</ele>
        <time>2015-08-22T13:26:21Z</time>
      </trkpt>
      <trkpt lat="45.40315" lon="5.90164">
        <ele>1220.15</ele>
        <time>2015-08-22T13:27:27Z</time>
      </trkpt>
      <trkpt lat="45.40331" lon="5.90155">
        <ele>1220.22</ele>
        <time>2015-08-22T13:27:57Z</time>
      </trkpt>
      <trkpt lat="45.40334" lon="5.90129">
        <ele>1206.26</ele>
        <time>2015-08-22T13:28:35Z</time>
      </trkpt>
      <trkpt lat="45.40333" lon="5.90101">
        <ele>1190.36</ele>
        <time>2015-08-22T13:28:56Z</time>
      </trkpt>
      <trkpt lat="45.4034" lon="5.90077">
        <ele>1182.9</ele>
        <time>2015-08-22T13:29:21Z</time>
      </trkpt>
      <trkpt lat="45.40342" lon="5.90051">
        <ele>1179.76</ele>
        <time>2015-08-22T13:29:40Z</time>
      </trkpt>
      <trkpt lat="45.40347" lon="5.90025">
        <ele>1174.03</ele>
        <time>2015-08-22T13:30:05Z</time>
      </trkpt>
      <trkpt lat="45.40344" lon="5.9">
        <ele>1166.91</ele>
        <time>2015-08-22T13:30:31Z</time>
      </trkpt>
      <trkpt lat="45.40352" lon="5.89976">
        <ele>1160.87</ele>
        <time>2015-08-22T13:33:28Z</time>
      </trkpt>
      <trkpt lat="45.4036" lon="5.89951">
        <ele>1159.6</ele>
        <time>2015-08-22T13:33:46Z</time>
      </trkpt>
      <trkpt lat="45.40372" lon="5.8993">
        <ele>1147.3</ele>
        <time>2015-08-22T13:34:08Z</time>
      </trkpt>
      <trkpt lat="45.4038" lon="5.89907">
        <ele>1145.21</ele>
        <time>2015-08-22T13:34:23Z</time>
      </trkpt>
      <trkpt lat="45.40386" lon="5.89882">
        <ele>1141.98</ele>
        <time>2015-08-22T13:34:41Z</time>
      </trkpt>
      <trkpt lat="45.40394" lon="5.89859">
        <ele>1145.7</ele>
        <time>2015-08-22T13:34:58Z</time>
      </trkpt>
      <trkpt lat="45.40396" lon="5.89832">
        <ele>1141.61</ele>
        <time>2015-08-22T13:35:17Z</time>
      </trkpt>
      <trkpt lat="45.404" lon="5.89805">
        <ele>1127.74</ele>
        <time>2015-08-22T13:35:37Z</time>
      </trkpt>
      <trkpt lat="45.40407" lon="5.8978">
        <ele>1123.52</ele>
        <time>2015-08-22T13:35:55Z</time>
      </trkpt>
      <trkpt lat="45.40415" lon="5.89755">
        <ele>1124.19</ele>
        <time>2015-08-22T13:36:14Z</time>
      </trkpt>
      <trkpt lat="45.40424" lon="5.89732">
        <ele>1130.04</ele>
        <time>2015-08-22T13:36:31Z</time>
      </trkpt>
      <trkpt lat="45.40428" lon="5.89707">
        <ele>1132.86</ele>
        <time>2015-08-22T13:36:49Z</time>
      </trkpt>
      <trkpt lat="45.40432" lon="5.89681">
        <ele>1129.42</ele>
        <time>2015-08-22T13:37:23Z</time>
      </trkpt>
      <trkpt lat="45.40439" lon="5.89657">
        <ele>1121.91</ele>
        <time>2015-08-22T13:37:43Z</time>
      </trkpt>
      <trkpt lat="45.40442" lon="5.89631">
        <ele>1121.37</ele>
        <time>2015-08-22T13:38:01Z</time>
      </trkpt>
      <trkpt lat="45.40449" lon="5.89607">
        <ele>1121.48</ele>
        <time>2015-08-22T13:38:20Z</time>
      </trkpt>
      <trkpt lat="45.40465" lon="5.89595">
        <ele>1118.26</ele>
        <time>2015-08-22T13:38:37Z</time>
      </trkpt>
      <trkpt lat="45.40483" lon="5.89586">
        <ele>1122.34</ele>
        <time>2015-08-22T13:38:54Z</time>
      </trkpt>
      <trkpt lat="45.40502" lon="5.89583">
        <ele>1122.08</ele>
        <time>2015-08-22T13:39:10Z</time>
      </trkpt>
      <trkpt lat="45.40511" lon="5.89558">
        <ele>1127.21</ele>
        <time>2015-08-22T13:39:26Z</time>
      </trkpt>
      <trkpt lat="45.4052" lon="5.89535">
        <ele>1131.27</ele>
        <time>2015-08-22T13:39:41Z</time>
      </trkpt>
      <trkpt lat="45.40536" lon="5.89525">
        <ele>1124.07</ele>
        <time>2015-08-22T13:39:58Z</time>
      </trkpt>
      <trkpt lat="45.40554" lon="5.89523">
        <ele>1126.13</ele>
        <time>2015-08-22T13:40:19Z</time>
      </trkpt>
      <trkpt lat="45.40573" lon="5.89516">
        <ele>1122.31</ele>
        <time>2015-08-22T13:40:34Z</time>
      </trkpt>
      <trkpt lat="45.40591" lon="5.89516">
        <ele>1118.81</ele>
        <time>2015-08-22T13:41:06Z</time>
      </trkpt>
      <trkpt lat="45.40607" lon="5.89534">
        <ele>1114.17</ele>
        <time>2015-08-22T13:41:20Z</time>
      </trkpt>
      <trkpt lat="45.40625" lon="5.89532">
        <ele>1114.59</ele>
        <time>2015-08-22T13:41:31Z</time>
      </trkpt>
      <trkpt lat="45.40644" lon="5.89541">
        <ele>1117.45</ele>
        <time>2015-08-22T13:41:42Z</time>
      </trkpt>
      <trkpt lat="45.40663" lon="5.89546">
        <ele>1116.44</ele>
        <time>2015-08-22T13:41:55Z</time>
      </trkpt>
      <trkpt lat="45.4068" lon="5.89555">
        <ele>1120.8</ele>
        <time>2015-08-22T13:42:13Z</time>
      </trkpt>
      <trkpt lat="45.40699" lon="5.8955">
        <ele>1124.21</ele>
        <time>2015-08-22T13:42:31Z</time>
      </trkpt>
      <trkpt lat="45.40717" lon="5.89554">
        <ele>1125.63</ele>
        <time>2015-08-22T13:42:51Z</time>
      </trkpt>
      <trkpt lat="45.40735" lon="5.89557">
        <ele>1122.54</ele>
        <time>2015-08-22T13:43:07Z</time>
      </trkpt>
      <trkpt lat="45.4075" lon="5.89538">
        <ele>1124.81</ele>
        <time>2015-08-22T13:43:21Z</time>
      </trkpt>
      <trkpt lat="45.40768" lon="5.89539">
        <ele>1118.73</ele>
        <time>2015-08-22T13:43:33Z</time>
      </trkpt>
      <trkpt lat="45.40786" lon="5.89545">
        <ele>1111.3</ele>
        <time>2015-08-22T13:43:48Z</time>
      </trkpt>
      <trkpt lat="45.40804" lon="5.89543">
        <ele>1107.8</ele>
        <time>2015-08-22T13:44:03Z</time>
      </trkpt>
      <trkpt lat="45.40821" lon="5.89531">
        <ele>1104.07</ele>
        <time>2015-08-22T13:44:20Z</time>
      </trkpt>
      <trkpt lat="45.4083" lon="5.89507">
        <ele>1111.81</ele>
        <time>2015-08-22T13:44:29Z</time>
      </trkpt>
      <trkpt lat="45.40843" lon="5.89488">
        <ele>1105.19</ele>
        <time>2015-08-22T13:44:49Z</time>
      </trkpt>
      <trkpt lat="45.40852" lon="5.89465">
        <ele>1102.1</ele>
        <time>2015-08-22T13:45:01Z</time>
      </trkpt>
      <trkpt lat="45.4086" lon="5.89442">
        <ele>1090.38</ele>
        <time>2015-08-22T13:45:19Z</time>
      </trkpt>
      <trkpt lat="45.40862" lon="5.89415">
        <ele>1087.94</ele>
        <time>2015-08-22T13:45:36Z</time>
      </trkpt>
      <trkpt lat="45.40866" lon="5.89389">
        <ele>1087.09</ele>
        <time>2015-08-22T13:45:54Z</time>
      </trkpt>
      <trkpt lat="45.40866" lon="5.89362">
        <ele>1084.12</ele>
        <time>2015-08-22T13:46:12Z</time>
      </trkpt>
      <trkpt lat="45.40862" lon="5.89338">
        <ele>1086.89</ele>
        <time>2015-08-22T13:46:27Z</time>
      </trkpt>
      <trkpt lat="45.40872" lon="5.89316">
        <ele>1085.31</ele>
        <time>2015-08-22T13:46:51Z</time>
      </trkpt>
      <trkpt lat="45.40883" lon="5.89294">
        <ele>1092.98</ele>
        <time>2015-08-22T13:47:11Z</time>
      </trkpt>
      <trkpt lat="45.40897" lon="5.89277">
        <ele>1092.23</ele>
        <time>2015-08-22T13:47:27Z</time>
      </trkpt>
      <trkpt lat="45.40913" lon="5.89266">
        <ele>1094.8</ele>
        <time>2015-08-22T13:47:44Z</time>
      </trkpt>
      <trkpt lat="45.40931" lon="5.89259">
        <ele>1101.37</ele>
        <time>2015-08-22T13:48:05Z</time>
      </trkpt>
      <trkpt lat="45.40946" lon="5.89242">
        <ele>1100.98</ele>
        <time>2015-08-22T13:48:23Z</time>
      </trkpt>
      <trkpt lat="45.40954" lon="5.89218">
        <ele>1102.24</ele>
        <time>2015-08-22T13:48:41Z</time>
      </trkpt>
      <trkpt lat="45.40971" lon="5.89207">
        <ele>1095.52</ele>
        <time>2015-08-22T13:48:53Z</time>
      </trkpt>
      <trkpt lat="45.40984" lon="5.89189">
        <ele>1098.66</ele>
        <time>2015-08-22T13:49:12Z</time>
      </trkpt>
      <trkpt lat="45.40998" lon="5.89174">
        <ele>1099.34</ele>
        <time>2015-08-22T13:49:27Z</time>
      </trkpt>
      <trkpt lat="45.41017" lon="5.89169">
        <ele>1106.15</ele>
        <time>2015-08-22T13:49:40Z</time>
      </trkpt>
      <trkpt lat="45.41028" lon="5.89149">
        <ele>1101.7</ele>
        <time>2015-08-22T13:49:58Z</time>
      </trkpt>
      <trkpt lat="45.41034" lon="5.89124">
        <ele>1107.02</ele>
        <time>2015-08-22T13:50:17Z</time>
      </trkpt>
      <trkpt lat="45.41039" lon="5.89098">
        <ele>1099.64</ele>
        <time>2015-08-22T13:50:30Z</time>
      </trkpt>
      <trkpt lat="45.41037" lon="5.89072">
        <ele>1095.16</ele>
        <time>2015-08-22T13:50:47Z</time>
      </trkpt>
      <trkpt lat="45.41036" lon="5.89046">
        <ele>1099.68</ele>
        <time>2015-08-22T13:51:00Z</time>
      </trkpt>
      <trkpt lat="45.4104" lon="5.89019">
        <ele>1096.8</ele>
        <time>2015-08-22T13:51:16Z</time>
      </trkpt>
      <trkpt lat="45.4104" lon="5.88993">
        <ele>1096.54</ele>
        <time>2015-08-22T13:51:32Z</time>
      </trkpt>
      <trkpt lat="45.41049" lon="5.8897">
        <ele>1099.87</ele>
        <time>2015-08-22T13:51:54Z</time>
      </trkpt>
      <trkpt lat="45.41059" lon="5.88948">
        <ele>1095.9</ele>
        <time>2015-08-22T13:52:12Z</time>
      </trkpt>
      <trkpt lat="45.41066" lon="5.88924">
        <ele>1094.43</ele>
        <time>2015-08-22T13:52:31Z</time>
      </trkpt>
      <trkpt lat="45.41081" lon="5.88909">
        <ele>1088.59</ele>
        <time>2015-08-22T13:52:53Z</time>
      </trkpt>
      <trkpt lat="45.41092" lon="5.88888">
        <ele>1086.47</ele>
        <time>2015-08-22T13:53:10Z</time>
      </trkpt>
      <trkpt lat="45.41109" lon="5.88877">
        <ele>1071.26</ele>
        <time>2015-08-22T13:53:43Z</time>
      </trkpt>
      <trkpt lat="45.4112" lon="5.88857">
        <ele>1069.39</ele>
        <time>2015-08-22T13:54:01Z</time>
      </trkpt>
      <trkpt lat="45.41136" lon="5.88843">
        <ele>1071.09</ele>
        <time>2015-08-22T13:54:16Z</time>
      </trkpt>
      <trkpt lat="45.41149" lon="5.88825">
        <ele>1065.4</ele>
        <time>2015-08-22T13:54:37Z</time>
      </trkpt>
      <trkpt lat="45.41161" lon="5.88806">
        <ele>1058.16</ele>
        <time>2015-08-22T13:54:56Z</time>
      </trkpt>
      <trkpt lat="45.41174" lon="5.88786">
        <ele>1055.51</ele>
        <time>2015-08-22T13:55:13Z</time>
      </trkpt>
      <trkpt lat="45.41177" lon="5.88761">
        <ele>1048.15</ele>
        <time>2015-08-22T13:55:32Z</time>
      </trkpt>
      <trkpt lat="45.41185" lon="5.88738">
        <ele>1043.69</ele>
        <time>2015-08-22T13:55:50Z</time>
      </trkpt>
      <trkpt lat="45.41202" lon="5.88726">
        <ele>1040.76</ele>
        <time>2015-08-22T13:56:04Z</time>
      </trkpt>
      <trkpt lat="45.41216" lon="5.8871">
        <ele>1035.7</ele>
        <time>2015-08-22T13:56:21Z</time>
      </trkpt>
      <trkpt lat="45.41231" lon="5.88695">
        <ele>1034.69</ele>
        <time>2015-08-22T13:56:34Z</time>
      </trkpt>
      <trkpt lat="45.41244" lon="5.88675">
        <ele>1029.5</ele>
        <time>2015-08-22T13:56:53Z</time>
      </trkpt>
    </trkseg>
  </trk>
</gpx>